<?xml version='1.0' encoding='UTF-8'?><gpx version="1.1" creator="JPX - https://github.com/jenetics/jpx" xmlns="http://www.topografix.com/GPX/1/1"><trk><trkseg><trkpt lat="36.9745446" lon="15.1881565"><ele>58.0</ele><time>2026-03-28T08:28:29.511Z</time></trkpt><trkpt lat="36.9745788" lon="15.1880157"><ele>58.0</ele><time>2026-03-28T08:28:31.512Z</time></trkpt><trkpt lat="36.9746026" lon="15.187921"><ele>58.0</ele><time>2026-03-28T08:28:32.512Z</time></trkpt><trkpt lat="36.9746299" lon="15.1878105"><ele>58.0</ele><time>2026-03-28T08:28:33.511Z</time></trkpt><trkpt lat="36.9746582" lon="15.1877012"><ele>58.0</ele><time>2026-03-28T08:28:34.512Z</time></trkpt><trkpt lat="36.9746947" lon="15.1875741"><ele>58.0</ele><time>2026-03-28T08:28:35.511Z</time></trkpt><trkpt lat="36.974735" lon="15.1874294"><ele>58.0</ele><time>2026-03-28T08:28:36.512Z</time></trkpt><trkpt lat="36.9747795" lon="15.1872758"><ele>58.0</ele><time>2026-03-28T08:28:37.513Z</time></trkpt><trkpt lat="36.9748256" lon="15.1871114"><ele>58.0</ele><time>2026-03-28T08:28:38.512Z</time></trkpt><trkpt lat="36.9748668" lon="15.1869555"><ele>58.25</ele><time>2026-03-28T08:28:39.511Z</time></trkpt><trkpt lat="36.9749127" lon="15.1867894"><ele>58.5</ele><time>2026-03-28T08:28:40.512Z</time></trkpt><trkpt lat="36.9749551" lon="15.1866203"><ele>58.75</ele><time>2026-03-28T08:28:41.511Z</time></trkpt><trkpt lat="36.9750003" lon="15.1864386"><ele>59.0</ele><time>2026-03-28T08:28:42.512Z</time></trkpt><trkpt lat="36.9750519" lon="15.1862487"><ele>60.0</ele><time>2026-03-28T08:28:43.511Z</time></trkpt><trkpt lat="36.9750997" lon="15.1860512"><ele>61.0</ele><time>2026-03-28T08:28:44.512Z</time></trkpt><trkpt lat="36.9751509" lon="15.1858533"><ele>62.0</ele><time>2026-03-28T08:28:45.512Z</time></trkpt><trkpt lat="36.9752081" lon="15.1856472"><ele>62.0</ele><time>2026-03-28T08:28:46.512Z</time></trkpt><trkpt lat="36.9752629" lon="15.1854553"><ele>62.0</ele><time>2026-03-28T08:28:47.511Z</time></trkpt><trkpt lat="36.975313" lon="15.1852615"><ele>62.0</ele><time>2026-03-28T08:28:48.511Z</time></trkpt><trkpt lat="36.9753663" lon="15.1850596"><ele>62.0</ele><time>2026-03-28T08:28:49.512Z</time></trkpt><trkpt lat="36.9754185" lon="15.1848549"><ele>62.0</ele><time>2026-03-28T08:28:50.512Z</time></trkpt><trkpt lat="36.9754724" lon="15.1846468"><ele>62.0</ele><time>2026-03-28T08:28:51.511Z</time></trkpt><trkpt lat="36.9755288" lon="15.1844427"><ele>62.0</ele><time>2026-03-28T08:28:52.512Z</time></trkpt><trkpt lat="36.9755779" lon="15.184258"><ele>62.0</ele><time>2026-03-28T08:28:53.512Z</time></trkpt><trkpt lat="36.9756308" lon="15.1840682"><ele>62.0</ele><time>2026-03-28T08:28:54.511Z</time></trkpt><trkpt lat="36.9756834" lon="15.1838749"><ele>62.0</ele><time>2026-03-28T08:28:55.512Z</time></trkpt><trkpt lat="36.975744" lon="15.1836862"><ele>62.0</ele><time>2026-03-28T08:28:56.511Z</time></trkpt><trkpt lat="36.9758115" lon="15.1834791"><ele>62.0</ele><time>2026-03-28T08:28:57.511Z</time></trkpt><trkpt lat="36.9758778" lon="15.1832685"><ele>63.0</ele><time>2026-03-28T08:28:58.513Z</time></trkpt><trkpt lat="36.9759336" lon="15.1830594"><ele>64.0</ele><time>2026-03-28T08:28:59.512Z</time></trkpt><trkpt lat="36.9759857" lon="15.1828473"><ele>65.0</ele><time>2026-03-28T08:29:00.51Z</time></trkpt><trkpt lat="36.9760458" lon="15.1826284"><ele>65.0</ele><time>2026-03-28T08:29:01.512Z</time></trkpt><trkpt lat="36.9761033" lon="15.1824073"><ele>65.0</ele><time>2026-03-28T08:29:02.512Z</time></trkpt><trkpt lat="36.9761684" lon="15.1821829"><ele>65.0</ele><time>2026-03-28T08:29:03.511Z</time></trkpt><trkpt lat="36.9762298" lon="15.1819601"><ele>65.33333333333334</ele><time>2026-03-28T08:29:04.513Z</time></trkpt><trkpt lat="36.9762932" lon="15.1817321"><ele>65.66666666666667</ele><time>2026-03-28T08:29:05.512Z</time></trkpt><trkpt lat="36.9763495" lon="15.1814997"><ele>66.0</ele><time>2026-03-28T08:29:06.51Z</time></trkpt><trkpt lat="36.9764144" lon="15.1812729"><ele>66.33333333333333</ele><time>2026-03-28T08:29:07.513Z</time></trkpt><trkpt lat="36.9764849" lon="15.1810507"><ele>66.66666666666666</ele><time>2026-03-28T08:29:08.511Z</time></trkpt><trkpt lat="36.9765613" lon="15.180825"><ele>67.0</ele><time>2026-03-28T08:29:09.512Z</time></trkpt><trkpt lat="36.9766335" lon="15.1806096"><ele>69.0</ele><time>2026-03-28T08:29:10.511Z</time></trkpt><trkpt lat="36.9767103" lon="15.1803859"><ele>71.0</ele><time>2026-03-28T08:29:11.512Z</time></trkpt><trkpt lat="36.9767891" lon="15.1801638"><ele>73.0</ele><time>2026-03-28T08:29:12.512Z</time></trkpt><trkpt lat="36.9768661" lon="15.1799401"><ele>73.66666666666666</ele><time>2026-03-28T08:29:13.512Z</time></trkpt><trkpt lat="36.9769381" lon="15.1797203"><ele>74.33333333333333</ele><time>2026-03-28T08:29:14.513Z</time></trkpt><trkpt lat="36.977013" lon="15.1795048"><ele>75.0</ele><time>2026-03-28T08:29:15.51Z</time></trkpt><trkpt lat="36.9770906" lon="15.1792835"><ele>75.0</ele><time>2026-03-28T08:29:16.512Z</time></trkpt><trkpt lat="36.9771693" lon="15.1790679"><ele>75.0</ele><time>2026-03-28T08:29:17.512Z</time></trkpt><trkpt lat="36.9772339" lon="15.1788695"><ele>75.0</ele><time>2026-03-28T08:29:18.511Z</time></trkpt><trkpt lat="36.9773044" lon="15.1786718"><ele>75.33333333333333</ele><time>2026-03-28T08:29:19.511Z</time></trkpt><trkpt lat="36.977374" lon="15.1784749"><ele>75.66666666666666</ele><time>2026-03-28T08:29:20.511Z</time></trkpt><trkpt lat="36.977437" lon="15.1782836"><ele>76.0</ele><time>2026-03-28T08:29:21.512Z</time></trkpt><trkpt lat="36.9774979" lon="15.1781096"><ele>76.75</ele><time>2026-03-28T08:29:22.513Z</time></trkpt><trkpt lat="36.9775621" lon="15.1779423"><ele>77.5</ele><time>2026-03-28T08:29:23.512Z</time></trkpt><trkpt lat="36.9776248" lon="15.1777788"><ele>78.25</ele><time>2026-03-28T08:29:24.511Z</time></trkpt><trkpt lat="36.9776806" lon="15.1776134"><ele>79.0</ele><time>2026-03-28T08:29:25.511Z</time></trkpt><trkpt lat="36.9777393" lon="15.1774535"><ele>79.5</ele><time>2026-03-28T08:29:26.511Z</time></trkpt><trkpt lat="36.9777879" lon="15.1773081"><ele>80.0</ele><time>2026-03-28T08:29:27.512Z</time></trkpt><trkpt lat="36.9778393" lon="15.1771688"><ele>80.5</ele><time>2026-03-28T08:29:28.511Z</time></trkpt><trkpt lat="36.9778895" lon="15.1770474"><ele>81.0</ele><time>2026-03-28T08:29:29.512Z</time></trkpt><trkpt lat="36.9779542" lon="15.1769183"><ele>81.0</ele><time>2026-03-28T08:29:30.511Z</time></trkpt><trkpt lat="36.9780298" lon="15.1767859"><ele>81.0</ele><time>2026-03-28T08:29:31.512Z</time></trkpt><trkpt lat="36.978116" lon="15.1766539"><ele>81.0</ele><time>2026-03-28T08:29:32.512Z</time></trkpt><trkpt lat="36.9782058" lon="15.1765144"><ele>81.0</ele><time>2026-03-28T08:29:33.511Z</time></trkpt><trkpt lat="36.978304" lon="15.1763726"><ele>82.25</ele><time>2026-03-28T08:29:34.511Z</time></trkpt><trkpt lat="36.9783967" lon="15.1762509"><ele>83.5</ele><time>2026-03-28T08:29:35.511Z</time></trkpt><trkpt lat="36.978485" lon="15.1761421"><ele>84.75</ele><time>2026-03-28T08:29:36.511Z</time></trkpt><trkpt lat="36.9785644" lon="15.1760455"><ele>86.0</ele><time>2026-03-28T08:29:37.512Z</time></trkpt><trkpt lat="36.9786425" lon="15.1759616"><ele>86.0</ele><time>2026-03-28T08:29:38.511Z</time></trkpt><trkpt lat="36.9787012" lon="15.1758949"><ele>86.0</ele><time>2026-03-28T08:29:39.512Z</time></trkpt><trkpt lat="36.9787721" lon="15.1758017"><ele>86.0</ele><time>2026-03-28T08:29:41.513Z</time></trkpt><trkpt lat="36.978792" lon="15.1757032"><ele>86.0</ele><time>2026-03-28T08:29:43.512Z</time></trkpt><trkpt lat="36.9788073" lon="15.1756208"><ele>86.0</ele><time>2026-03-28T08:29:44.512Z</time></trkpt><trkpt lat="36.9788261" lon="15.1755343"><ele>86.0</ele><time>2026-03-28T08:29:45.51Z</time></trkpt><trkpt lat="36.9788423" lon="15.1754429"><ele>86.8</ele><time>2026-03-28T08:29:46.512Z</time></trkpt><trkpt lat="36.9788636" lon="15.1753454"><ele>87.6</ele><time>2026-03-28T08:29:47.512Z</time></trkpt><trkpt lat="36.9788888" lon="15.1752222"><ele>88.4</ele><time>2026-03-28T08:29:48.512Z</time></trkpt><trkpt lat="36.978903" lon="15.1751007"><ele>89.2</ele><time>2026-03-28T08:29:49.512Z</time></trkpt><trkpt lat="36.978915" lon="15.1749782"><ele>90.0</ele><time>2026-03-28T08:29:50.512Z</time></trkpt><trkpt lat="36.9789154" lon="15.1748516"><ele>91.0</ele><time>2026-03-28T08:29:51.511Z</time></trkpt><trkpt lat="36.9789267" lon="15.1747089"><ele>92.0</ele><time>2026-03-28T08:29:52.513Z</time></trkpt><trkpt lat="36.978933" lon="15.1745674"><ele>93.0</ele><time>2026-03-28T08:29:53.512Z</time></trkpt><trkpt lat="36.9789403" lon="15.1744202"><ele>94.0</ele><time>2026-03-28T08:29:54.512Z</time></trkpt><trkpt lat="36.978946" lon="15.1742775"><ele>94.0</ele><time>2026-03-28T08:29:55.513Z</time></trkpt><trkpt lat="36.9789554" lon="15.174144"><ele>94.0</ele><time>2026-03-28T08:29:56.511Z</time></trkpt><trkpt lat="36.9789681" lon="15.17401"><ele>94.0</ele><time>2026-03-28T08:29:57.511Z</time></trkpt><trkpt lat="36.9789846" lon="15.1738909"><ele>94.0</ele><time>2026-03-28T08:29:58.512Z</time></trkpt><trkpt lat="36.9789969" lon="15.1737811"><ele>94.0</ele><time>2026-03-28T08:29:59.511Z</time></trkpt><trkpt lat="36.9789991" lon="15.1736825"><ele>95.33333333333333</ele><time>2026-03-28T08:30:00.51Z</time></trkpt><trkpt lat="36.9790084" lon="15.1736044"><ele>96.66666666666666</ele><time>2026-03-28T08:30:01.511Z</time></trkpt><trkpt lat="36.9789899" lon="15.1734852"><ele>98.0</ele><time>2026-03-28T08:30:03.512Z</time></trkpt><trkpt lat="36.9789337" lon="15.1734399"><ele>99.33333333333333</ele><time>2026-03-28T08:30:04.513Z</time></trkpt><trkpt lat="36.9788701" lon="15.1734118"><ele>100.66666666666667</ele><time>2026-03-28T08:30:05.511Z</time></trkpt><trkpt lat="36.9787812" lon="15.1734041"><ele>102.0</ele><time>2026-03-28T08:30:06.511Z</time></trkpt><trkpt lat="36.9786989" lon="15.1734233"><ele>102.0</ele><time>2026-03-28T08:30:07.512Z</time></trkpt><trkpt lat="36.9786158" lon="15.1734621"><ele>102.0</ele><time>2026-03-28T08:30:08.511Z</time></trkpt><trkpt lat="36.978536" lon="15.1735024"><ele>102.0</ele><time>2026-03-28T08:30:09.511Z</time></trkpt><trkpt lat="36.9784386" lon="15.1734648"><ele>102.0</ele><time>2026-03-28T08:30:11.511Z</time></trkpt><trkpt lat="36.9784429" lon="15.1733362"><ele>102.0</ele><time>2026-03-28T08:30:13.512Z</time></trkpt><trkpt lat="36.9784936" lon="15.1732462"><ele>105.25</ele><time>2026-03-28T08:30:14.511Z</time></trkpt><trkpt lat="36.9785673" lon="15.1731426"><ele>108.5</ele><time>2026-03-28T08:30:15.511Z</time></trkpt><trkpt lat="36.9786392" lon="15.1730349"><ele>111.75</ele><time>2026-03-28T08:30:16.511Z</time></trkpt><trkpt lat="36.9787147" lon="15.172923"><ele>115.0</ele><time>2026-03-28T08:30:17.512Z</time></trkpt><trkpt lat="36.9787872" lon="15.1727992"><ele>115.0</ele><time>2026-03-28T08:30:18.512Z</time></trkpt><trkpt lat="36.9788667" lon="15.1726628"><ele>115.0</ele><time>2026-03-28T08:30:19.511Z</time></trkpt><trkpt lat="36.9789446" lon="15.1725233"><ele>115.0</ele><time>2026-03-28T08:30:20.512Z</time></trkpt><trkpt lat="36.9790245" lon="15.1723744"><ele>115.0</ele><time>2026-03-28T08:30:21.513Z</time></trkpt><trkpt lat="36.9790977" lon="15.1722407"><ele>116.75</ele><time>2026-03-28T08:30:22.511Z</time></trkpt><trkpt lat="36.9791747" lon="15.1721054"><ele>118.5</ele><time>2026-03-28T08:30:23.512Z</time></trkpt><trkpt lat="36.9792473" lon="15.1719733"><ele>120.25</ele><time>2026-03-28T08:30:24.512Z</time></trkpt><trkpt lat="36.9793249" lon="15.1718395"><ele>122.0</ele><time>2026-03-28T08:30:25.51Z</time></trkpt><trkpt lat="36.9793945" lon="15.1717159"><ele>122.0</ele><time>2026-03-28T08:30:26.512Z</time></trkpt><trkpt lat="36.9794641" lon="15.171603"><ele>122.0</ele><time>2026-03-28T08:30:27.511Z</time></trkpt><trkpt lat="36.9795479" lon="15.1715015"><ele>122.0</ele><time>2026-03-28T08:30:28.511Z</time></trkpt><trkpt lat="36.9796485" lon="15.1714214"><ele>122.0</ele><time>2026-03-28T08:30:29.513Z</time></trkpt><trkpt lat="36.9797636" lon="15.171348"><ele>127.0</ele><time>2026-03-28T08:30:30.512Z</time></trkpt><trkpt lat="36.9798837" lon="15.1712843"><ele>132.0</ele><time>2026-03-28T08:30:31.512Z</time></trkpt><trkpt lat="36.980005" lon="15.1712273"><ele>137.0</ele><time>2026-03-28T08:30:32.512Z</time></trkpt><trkpt lat="36.9801213" lon="15.1711821"><ele>142.0</ele><time>2026-03-28T08:30:33.511Z</time></trkpt><trkpt lat="36.9802518" lon="15.1711843"><ele>142.0</ele><time>2026-03-28T08:30:34.512Z</time></trkpt><trkpt lat="36.9803818" lon="15.1711733"><ele>142.0</ele><time>2026-03-28T08:30:35.51Z</time></trkpt><trkpt lat="36.9805016" lon="15.1711701"><ele>142.0</ele><time>2026-03-28T08:30:36.51Z</time></trkpt><trkpt lat="36.9806143" lon="15.1711701"><ele>142.0</ele><time>2026-03-28T08:30:37.511Z</time></trkpt><trkpt lat="36.980709" lon="15.1711746"><ele>142.0</ele><time>2026-03-28T08:30:38.511Z</time></trkpt><trkpt lat="36.9807993" lon="15.1711753"><ele>142.0</ele><time>2026-03-28T08:30:39.511Z</time></trkpt><trkpt lat="36.9808984" lon="15.171128"><ele>142.0</ele><time>2026-03-28T08:30:41.511Z</time></trkpt><trkpt lat="36.9808409" lon="15.1710208"><ele>142.0</ele><time>2026-03-28T08:30:43.511Z</time></trkpt><trkpt lat="36.9807675" lon="15.17097"><ele>142.0</ele><time>2026-03-28T08:30:44.513Z</time></trkpt><trkpt lat="36.9806938" lon="15.1709069"><ele>142.0</ele><time>2026-03-28T08:30:45.512Z</time></trkpt><trkpt lat="36.9806087" lon="15.1708484"><ele>142.0</ele><time>2026-03-28T08:30:46.511Z</time></trkpt><trkpt lat="36.9805028" lon="15.1708132"><ele>142.0</ele><time>2026-03-28T08:30:47.511Z</time></trkpt><trkpt lat="36.9804168" lon="15.1708334"><ele>142.0</ele><time>2026-03-28T08:30:48.511Z</time></trkpt><trkpt lat="36.9803331" lon="15.1708542"><ele>142.0</ele><time>2026-03-28T08:30:49.511Z</time></trkpt><trkpt lat="36.9802256" lon="15.170872"><ele>142.0</ele><time>2026-03-28T08:30:51.512Z</time></trkpt><trkpt lat="36.9801939" lon="15.1707836"><ele>142.0</ele><time>2026-03-28T08:30:53.511Z</time></trkpt><trkpt lat="36.9803069" lon="15.1707271"><ele>142.0</ele><time>2026-03-28T08:30:55.51Z</time></trkpt><trkpt lat="36.9804059" lon="15.1707211"><ele>142.0</ele><time>2026-03-28T08:30:56.51Z</time></trkpt><trkpt lat="36.9804972" lon="15.1707231"><ele>142.0</ele><time>2026-03-28T08:30:57.512Z</time></trkpt><trkpt lat="36.9805745" lon="15.1707174"><ele>143.5</ele><time>2026-03-28T08:30:58.512Z</time></trkpt><trkpt lat="36.9806151" lon="15.1706237"><ele>145.0</ele><time>2026-03-28T08:31:00.512Z</time></trkpt><trkpt lat="36.9805315" lon="15.1705597"><ele>146.5</ele><time>2026-03-28T08:31:02.511Z</time></trkpt><trkpt lat="36.9804621" lon="15.1705861"><ele>148.0</ele><time>2026-03-28T08:31:03.511Z</time></trkpt><trkpt lat="36.9803937" lon="15.1706084"><ele>149.5</ele><time>2026-03-28T08:31:04.51Z</time></trkpt><trkpt lat="36.9803231" lon="15.1705475"><ele>151.0</ele><time>2026-03-28T08:31:06.51Z</time></trkpt><trkpt lat="36.9803757" lon="15.170488"><ele>151.0</ele><time>2026-03-28T08:31:08.511Z</time></trkpt><trkpt lat="36.980457" lon="15.1704878"><ele>151.0</ele><time>2026-03-28T08:31:09.51Z</time></trkpt><trkpt lat="36.9805233" lon="15.1704927"><ele>151.0</ele><time>2026-03-28T08:31:10.511Z</time></trkpt><trkpt lat="36.980598" lon="15.17043"><ele>151.0</ele><time>2026-03-28T08:31:12.511Z</time></trkpt><trkpt lat="36.9805355" lon="15.1703217"><ele>151.0</ele><time>2026-03-28T08:31:14.511Z</time></trkpt><trkpt lat="36.9804819" lon="15.1702712"><ele>151.0</ele><time>2026-03-28T08:31:15.511Z</time></trkpt><trkpt lat="36.9804372" lon="15.1702091"><ele>151.0</ele><time>2026-03-28T08:31:16.512Z</time></trkpt><trkpt lat="36.9804789" lon="15.1701189"><ele>151.0</ele><time>2026-03-28T08:31:17.512Z</time></trkpt><trkpt lat="36.9805147" lon="15.1700217"><ele>151.0</ele><time>2026-03-28T08:31:18.511Z</time></trkpt><trkpt lat="36.9805234" lon="15.1699056"><ele>151.0</ele><time>2026-03-28T08:31:19.512Z</time></trkpt><trkpt lat="36.9805162" lon="15.1697659"><ele>151.0</ele><time>2026-03-28T08:31:20.511Z</time></trkpt><trkpt lat="36.9804997" lon="15.1696368"><ele>153.75</ele><time>2026-03-28T08:31:21.511Z</time></trkpt><trkpt lat="36.9804725" lon="15.1695008"><ele>156.5</ele><time>2026-03-28T08:31:22.511Z</time></trkpt><trkpt lat="36.9804559" lon="15.1693555"><ele>159.25</ele><time>2026-03-28T08:31:23.511Z</time></trkpt><trkpt lat="36.9804356" lon="15.1692081"><ele>162.0</ele><time>2026-03-28T08:31:24.513Z</time></trkpt><trkpt lat="36.9804187" lon="15.169073"><ele>164.25</ele><time>2026-03-28T08:31:25.511Z</time></trkpt><trkpt lat="36.9804118" lon="15.1689419"><ele>166.5</ele><time>2026-03-28T08:31:26.511Z</time></trkpt><trkpt lat="36.9804324" lon="15.1688003"><ele>168.75</ele><time>2026-03-28T08:31:27.512Z</time></trkpt><trkpt lat="36.9804618" lon="15.1686558"><ele>171.0</ele><time>2026-03-28T08:31:28.512Z</time></trkpt><trkpt lat="36.9805156" lon="15.1685094"><ele>171.0</ele><time>2026-03-28T08:31:29.511Z</time></trkpt><trkpt lat="36.9805838" lon="15.1683816"><ele>171.0</ele><time>2026-03-28T08:31:30.512Z</time></trkpt><trkpt lat="36.9806464" lon="15.1682579"><ele>171.0</ele><time>2026-03-28T08:31:31.511Z</time></trkpt><trkpt lat="36.9807128" lon="15.1681156"><ele>171.0</ele><time>2026-03-28T08:31:32.512Z</time></trkpt><trkpt lat="36.9807758" lon="15.1679667"><ele>173.33333333333334</ele><time>2026-03-28T08:31:33.511Z</time></trkpt><trkpt lat="36.9808444" lon="15.1678026"><ele>175.66666666666669</ele><time>2026-03-28T08:31:34.512Z</time></trkpt><trkpt lat="36.9809225" lon="15.1676183"><ele>178.0</ele><time>2026-03-28T08:31:35.511Z</time></trkpt><trkpt lat="36.9810001" lon="15.1674484"><ele>178.0</ele><time>2026-03-28T08:31:36.512Z</time></trkpt><trkpt lat="36.9810757" lon="15.1672808"><ele>178.0</ele><time>2026-03-28T08:31:37.511Z</time></trkpt><trkpt lat="36.9811476" lon="15.1671027"><ele>178.0</ele><time>2026-03-28T08:31:38.512Z</time></trkpt><trkpt lat="36.9812212" lon="15.166912"><ele>178.0</ele><time>2026-03-28T08:31:39.511Z</time></trkpt><trkpt lat="36.9812974" lon="15.1667233"><ele>178.0</ele><time>2026-03-28T08:31:40.512Z</time></trkpt><trkpt lat="36.9813675" lon="15.1665393"><ele>178.0</ele><time>2026-03-28T08:31:41.511Z</time></trkpt><trkpt lat="36.9814443" lon="15.1663443"><ele>178.66666666666669</ele><time>2026-03-28T08:31:42.513Z</time></trkpt><trkpt lat="36.9815132" lon="15.1661621"><ele>179.33333333333334</ele><time>2026-03-28T08:31:43.513Z</time></trkpt><trkpt lat="36.9815886" lon="15.1659888"><ele>180.0</ele><time>2026-03-28T08:31:44.512Z</time></trkpt><trkpt lat="36.9816619" lon="15.1658166"><ele>181.0</ele><time>2026-03-28T08:31:45.511Z</time></trkpt><trkpt lat="36.9817356" lon="15.1656326"><ele>182.0</ele><time>2026-03-28T08:31:46.511Z</time></trkpt><trkpt lat="36.9818066" lon="15.1654495"><ele>183.0</ele><time>2026-03-28T08:31:47.511Z</time></trkpt><trkpt lat="36.9818817" lon="15.1652631"><ele>183.0</ele><time>2026-03-28T08:31:48.511Z</time></trkpt><trkpt lat="36.9819565" lon="15.1650735"><ele>183.0</ele><time>2026-03-28T08:31:49.51Z</time></trkpt><trkpt lat="36.982033" lon="15.1648834"><ele>183.0</ele><time>2026-03-28T08:31:50.512Z</time></trkpt><trkpt lat="36.982102" lon="15.1647073"><ele>183.25</ele><time>2026-03-28T08:31:51.511Z</time></trkpt><trkpt lat="36.9821654" lon="15.1645561"><ele>183.5</ele><time>2026-03-28T08:31:52.512Z</time></trkpt><trkpt lat="36.9822335" lon="15.1644105"><ele>183.75</ele><time>2026-03-28T08:31:53.512Z</time></trkpt><trkpt lat="36.9822915" lon="15.1642766"><ele>184.0</ele><time>2026-03-28T08:31:54.511Z</time></trkpt><trkpt lat="36.9823433" lon="15.164147"><ele>184.6</ele><time>2026-03-28T08:31:55.51Z</time></trkpt><trkpt lat="36.9823958" lon="15.1640269"><ele>185.2</ele><time>2026-03-28T08:31:56.512Z</time></trkpt><trkpt lat="36.9824437" lon="15.1639117"><ele>185.79999999999998</ele><time>2026-03-28T08:31:57.511Z</time></trkpt><trkpt lat="36.9824841" lon="15.1638166"><ele>186.39999999999998</ele><time>2026-03-28T08:31:58.511Z</time></trkpt><trkpt lat="36.9825033" lon="15.1637394"><ele>187.0</ele><time>2026-03-28T08:31:59.511Z</time></trkpt><trkpt lat="36.9824574" lon="15.1636082"><ele>187.0</ele><time>2026-03-28T08:32:01.511Z</time></trkpt><trkpt lat="36.9824023" lon="15.163539"><ele>187.0</ele><time>2026-03-28T08:32:02.512Z</time></trkpt><trkpt lat="36.9823295" lon="15.1634534"><ele>187.0</ele><time>2026-03-28T08:32:03.511Z</time></trkpt><trkpt lat="36.9822445" lon="15.1633606"><ele>187.0</ele><time>2026-03-28T08:32:04.513Z</time></trkpt><trkpt lat="36.9821472" lon="15.1632626"><ele>187.0</ele><time>2026-03-28T08:32:05.51Z</time></trkpt><trkpt lat="36.9820413" lon="15.1631553"><ele>187.25</ele><time>2026-03-28T08:32:06.511Z</time></trkpt><trkpt lat="36.981938" lon="15.1630499"><ele>187.5</ele><time>2026-03-28T08:32:07.511Z</time></trkpt><trkpt lat="36.9818316" lon="15.1629426"><ele>187.75</ele><time>2026-03-28T08:32:08.511Z</time></trkpt><trkpt lat="36.9817287" lon="15.162836"><ele>188.0</ele><time>2026-03-28T08:32:09.512Z</time></trkpt><trkpt lat="36.9816189" lon="15.1627206"><ele>189.25</ele><time>2026-03-28T08:32:10.512Z</time></trkpt><trkpt lat="36.9815037" lon="15.1626071"><ele>190.5</ele><time>2026-03-28T08:32:11.511Z</time></trkpt><trkpt lat="36.981389" lon="15.1624901"><ele>191.75</ele><time>2026-03-28T08:32:12.512Z</time></trkpt><trkpt lat="36.9812718" lon="15.1623669"><ele>193.0</ele><time>2026-03-28T08:32:13.511Z</time></trkpt><trkpt lat="36.9811492" lon="15.162236"><ele>193.0</ele><time>2026-03-28T08:32:14.512Z</time></trkpt><trkpt lat="36.9810239" lon="15.1621027"><ele>193.0</ele><time>2026-03-28T08:32:15.512Z</time></trkpt><trkpt lat="36.98089" lon="15.1619681"><ele>193.0</ele><time>2026-03-28T08:32:16.511Z</time></trkpt><trkpt lat="36.980759" lon="15.1618364"><ele>196.0</ele><time>2026-03-28T08:32:17.511Z</time></trkpt><trkpt lat="36.9806394" lon="15.1617026"><ele>199.0</ele><time>2026-03-28T08:32:18.51Z</time></trkpt><trkpt lat="36.9805153" lon="15.1615669"><ele>202.0</ele><time>2026-03-28T08:32:19.512Z</time></trkpt><trkpt lat="36.9803873" lon="15.1614317"><ele>202.66666666666666</ele><time>2026-03-28T08:32:20.511Z</time></trkpt><trkpt lat="36.9802564" lon="15.1612913"><ele>203.33333333333331</ele><time>2026-03-28T08:32:21.512Z</time></trkpt><trkpt lat="36.9801263" lon="15.1611496"><ele>204.0</ele><time>2026-03-28T08:32:22.511Z</time></trkpt><trkpt lat="36.9799918" lon="15.1610063"><ele>207.66666666666669</ele><time>2026-03-28T08:32:23.511Z</time></trkpt><trkpt lat="36.9798546" lon="15.1608633"><ele>211.33333333333334</ele><time>2026-03-28T08:32:24.512Z</time></trkpt><trkpt lat="36.9797112" lon="15.1607157"><ele>215.0</ele><time>2026-03-28T08:32:25.511Z</time></trkpt><trkpt lat="36.9795694" lon="15.1605693"><ele>218.33333333333334</ele><time>2026-03-28T08:32:26.511Z</time></trkpt><trkpt lat="36.9794228" lon="15.1604215"><ele>221.66666666666669</ele><time>2026-03-28T08:32:27.512Z</time></trkpt><trkpt lat="36.9792864" lon="15.1602789"><ele>225.0</ele><time>2026-03-28T08:32:28.51Z</time></trkpt><trkpt lat="36.979158" lon="15.1601464"><ele>225.0</ele><time>2026-03-28T08:32:29.511Z</time></trkpt><trkpt lat="36.9790363" lon="15.160023"><ele>225.0</ele><time>2026-03-28T08:32:30.512Z</time></trkpt><trkpt lat="36.9789204" lon="15.1598982"><ele>225.0</ele><time>2026-03-28T08:32:31.511Z</time></trkpt><trkpt lat="36.9788071" lon="15.1597828"><ele>227.4</ele><time>2026-03-28T08:32:32.511Z</time></trkpt><trkpt lat="36.9787082" lon="15.1596734"><ele>229.8</ele><time>2026-03-28T08:32:33.511Z</time></trkpt><trkpt lat="36.9786247" lon="15.159576"><ele>232.2</ele><time>2026-03-28T08:32:34.511Z</time></trkpt><trkpt lat="36.9785486" lon="15.1594888"><ele>234.6</ele><time>2026-03-28T08:32:35.511Z</time></trkpt><trkpt lat="36.9784689" lon="15.15942"><ele>237.0</ele><time>2026-03-28T08:32:36.511Z</time></trkpt><trkpt lat="36.9783914" lon="15.1593994"><ele>236.2</ele><time>2026-03-28T08:32:37.511Z</time></trkpt><trkpt lat="36.9783144" lon="15.1594157"><ele>235.39999999999998</ele><time>2026-03-28T08:32:38.512Z</time></trkpt><trkpt lat="36.9782573" lon="15.159481"><ele>234.60000000000002</ele><time>2026-03-28T08:32:39.511Z</time></trkpt><trkpt lat="36.9782113" lon="15.1595831"><ele>233.8</ele><time>2026-03-28T08:32:40.511Z</time></trkpt><trkpt lat="36.9781855" lon="15.1597242"><ele>233.0</ele><time>2026-03-28T08:32:41.511Z</time></trkpt><trkpt lat="36.9781732" lon="15.1598753"><ele>232.8</ele><time>2026-03-28T08:32:42.51Z</time></trkpt><trkpt lat="36.9781646" lon="15.1600324"><ele>232.60000000000002</ele><time>2026-03-28T08:32:43.511Z</time></trkpt><trkpt lat="36.9781809" lon="15.1601833"><ele>232.39999999999998</ele><time>2026-03-28T08:32:44.513Z</time></trkpt><trkpt lat="36.9781954" lon="15.1603178"><ele>232.2</ele><time>2026-03-28T08:32:45.511Z</time></trkpt><trkpt lat="36.9782099" lon="15.1604287"><ele>232.0</ele><time>2026-03-28T08:32:46.511Z</time></trkpt><trkpt lat="36.9782089" lon="15.1605167"><ele>231.99999999999997</ele><time>2026-03-28T08:32:47.51Z</time></trkpt><trkpt lat="36.9781778" lon="15.1605961"><ele>232.0</ele><time>2026-03-28T08:32:48.511Z</time></trkpt><trkpt lat="36.9780702" lon="15.1606296"><ele>232.0</ele><time>2026-03-28T08:32:50.512Z</time></trkpt><trkpt lat="36.978022" lon="15.1605681"><ele>232.0</ele><time>2026-03-28T08:32:51.511Z</time></trkpt><trkpt lat="36.9779879" lon="15.1604778"><ele>231.99999999999997</ele><time>2026-03-28T08:32:52.512Z</time></trkpt><trkpt lat="36.9779593" lon="15.1603827"><ele>232.0</ele><time>2026-03-28T08:32:53.511Z</time></trkpt><trkpt lat="36.9779074" lon="15.1603285"><ele>232.0</ele><time>2026-03-28T08:32:54.511Z</time></trkpt><trkpt lat="36.9778322" lon="15.1603135"><ele>232.0</ele><time>2026-03-28T08:32:55.512Z</time></trkpt><trkpt lat="36.9777437" lon="15.1603432"><ele>232.0</ele><time>2026-03-28T08:32:56.51Z</time></trkpt><trkpt lat="36.9776427" lon="15.160395"><ele>232.0</ele><time>2026-03-28T08:32:57.511Z</time></trkpt><trkpt lat="36.9775462" lon="15.1604493"><ele>232.0</ele><time>2026-03-28T08:32:58.511Z</time></trkpt><trkpt lat="36.9774514" lon="15.1604877"><ele>235.6</ele><time>2026-03-28T08:32:59.511Z</time></trkpt><trkpt lat="36.9773562" lon="15.1604728"><ele>239.2</ele><time>2026-03-28T08:33:00.511Z</time></trkpt><trkpt lat="36.9772584" lon="15.1604387"><ele>242.8</ele><time>2026-03-28T08:33:01.511Z</time></trkpt><trkpt lat="36.977156" lon="15.1603848"><ele>246.4</ele><time>2026-03-28T08:33:02.511Z</time></trkpt><trkpt lat="36.9770732" lon="15.1603237"><ele>250.0</ele><time>2026-03-28T08:33:03.512Z</time></trkpt><trkpt lat="36.9770264" lon="15.1602471"><ele>250.0</ele><time>2026-03-28T08:33:04.512Z</time></trkpt><trkpt lat="36.9770126" lon="15.1601493"><ele>250.0</ele><time>2026-03-28T08:33:05.512Z</time></trkpt><trkpt lat="36.9770403" lon="15.1600465"><ele>250.0</ele><time>2026-03-28T08:33:06.512Z</time></trkpt><trkpt lat="36.9771001" lon="15.1599333"><ele>250.0</ele><time>2026-03-28T08:33:07.512Z</time></trkpt><trkpt lat="36.9771663" lon="15.1598064"><ele>250.0</ele><time>2026-03-28T08:33:08.512Z</time></trkpt><trkpt lat="36.9772293" lon="15.1596905"><ele>251.5</ele><time>2026-03-28T08:33:09.512Z</time></trkpt><trkpt lat="36.9772793" lon="15.1595708"><ele>253.0</ele><time>2026-03-28T08:33:10.511Z</time></trkpt><trkpt lat="36.9773231" lon="15.1594405"><ele>254.5</ele><time>2026-03-28T08:33:11.511Z</time></trkpt><trkpt lat="36.9773455" lon="15.1593005"><ele>256.0</ele><time>2026-03-28T08:33:12.511Z</time></trkpt><trkpt lat="36.9773736" lon="15.1591586"><ele>257.5</ele><time>2026-03-28T08:33:13.511Z</time></trkpt><trkpt lat="36.9773837" lon="15.1590191"><ele>259.0</ele><time>2026-03-28T08:33:14.511Z</time></trkpt><trkpt lat="36.9773671" lon="15.1588804"><ele>260.5</ele><time>2026-03-28T08:33:15.511Z</time></trkpt><trkpt lat="36.9773315" lon="15.1587354"><ele>262.0</ele><time>2026-03-28T08:33:16.511Z</time></trkpt><trkpt lat="36.9772791" lon="15.1585959"><ele>262.0</ele><time>2026-03-28T08:33:17.511Z</time></trkpt><trkpt lat="36.9772182" lon="15.1584575"><ele>262.0</ele><time>2026-03-28T08:33:18.511Z</time></trkpt><trkpt lat="36.9771448" lon="15.1583247"><ele>262.0</ele><time>2026-03-28T08:33:19.51Z</time></trkpt><trkpt lat="36.9770527" lon="15.1581975"><ele>262.0</ele><time>2026-03-28T08:33:20.511Z</time></trkpt><trkpt lat="36.9769574" lon="15.1580827"><ele>264.0</ele><time>2026-03-28T08:33:21.512Z</time></trkpt><trkpt lat="36.9768526" lon="15.1579933"><ele>266.0</ele><time>2026-03-28T08:33:22.511Z</time></trkpt><trkpt lat="36.9767698" lon="15.1579231"><ele>268.0</ele><time>2026-03-28T08:33:23.51Z</time></trkpt><trkpt lat="36.976708" lon="15.1578681"><ele>270.0</ele><time>2026-03-28T08:33:24.51Z</time></trkpt><trkpt lat="36.9766419" lon="15.1578569"><ele>272.0</ele><time>2026-03-28T08:33:25.511Z</time></trkpt><trkpt lat="36.9765492" lon="15.1579837"><ele>272.4</ele><time>2026-03-28T08:33:27.511Z</time></trkpt><trkpt lat="36.976515" lon="15.1580998"><ele>272.79999999999995</ele><time>2026-03-28T08:33:28.51Z</time></trkpt><trkpt lat="36.9764926" lon="15.1582161"><ele>273.2</ele><time>2026-03-28T08:33:29.51Z</time></trkpt><trkpt lat="36.9764665" lon="15.1583285"><ele>273.59999999999997</ele><time>2026-03-28T08:33:30.511Z</time></trkpt><trkpt lat="36.9764272" lon="15.1584273"><ele>274.0</ele><time>2026-03-28T08:33:31.511Z</time></trkpt><trkpt lat="36.9763599" lon="15.1585032"><ele>274.0</ele><time>2026-03-28T08:33:32.51Z</time></trkpt><trkpt lat="36.9762778" lon="15.158565"><ele>274.0</ele><time>2026-03-28T08:33:33.511Z</time></trkpt><trkpt lat="36.9761632" lon="15.1585906"><ele>274.0</ele><time>2026-03-28T08:33:34.511Z</time></trkpt><trkpt lat="36.9760631" lon="15.1586043"><ele>274.0</ele><time>2026-03-28T08:33:35.512Z</time></trkpt><trkpt lat="36.9759743" lon="15.158588"><ele>274.0</ele><time>2026-03-28T08:33:36.511Z</time></trkpt><trkpt lat="36.9759014" lon="15.1585327"><ele>275.59999999999997</ele><time>2026-03-28T08:33:37.511Z</time></trkpt><trkpt lat="36.9758377" lon="15.1584372"><ele>277.2</ele><time>2026-03-28T08:33:38.511Z</time></trkpt><trkpt lat="36.9757967" lon="15.1583128"><ele>278.79999999999995</ele><time>2026-03-28T08:33:39.512Z</time></trkpt><trkpt lat="36.9757877" lon="15.1581762"><ele>280.4</ele><time>2026-03-28T08:33:40.512Z</time></trkpt><trkpt lat="36.9757984" lon="15.1580243"><ele>282.0</ele><time>2026-03-28T08:33:41.511Z</time></trkpt><trkpt lat="36.9758214" lon="15.1578567"><ele>281.5</ele><time>2026-03-28T08:33:42.511Z</time></trkpt><trkpt lat="36.9758602" lon="15.1576898"><ele>281.0</ele><time>2026-03-28T08:33:43.511Z</time></trkpt><trkpt lat="36.9758898" lon="15.1575303"><ele>280.5</ele><time>2026-03-28T08:33:44.511Z</time></trkpt><trkpt lat="36.975925" lon="15.157359"><ele>280.0</ele><time>2026-03-28T08:33:45.511Z</time></trkpt><trkpt lat="36.9759645" lon="15.1571838"><ele>282.0</ele><time>2026-03-28T08:33:46.51Z</time></trkpt><trkpt lat="36.9760008" lon="15.1569991"><ele>284.0</ele><time>2026-03-28T08:33:47.511Z</time></trkpt><trkpt lat="36.9760457" lon="15.1568304"><ele>286.0</ele><time>2026-03-28T08:33:48.511Z</time></trkpt><trkpt lat="36.9760976" lon="15.1566739"><ele>288.0</ele><time>2026-03-28T08:33:49.51Z</time></trkpt><trkpt lat="36.9761529" lon="15.1565323"><ele>289.5</ele><time>2026-03-28T08:33:50.512Z</time></trkpt><trkpt lat="36.9762262" lon="15.1564047"><ele>291.0</ele><time>2026-03-28T08:33:51.511Z</time></trkpt><trkpt lat="36.9763187" lon="15.1562827"><ele>292.5</ele><time>2026-03-28T08:33:52.51Z</time></trkpt><trkpt lat="36.9764175" lon="15.1561804"><ele>294.0</ele><time>2026-03-28T08:33:53.511Z</time></trkpt><trkpt lat="36.9765145" lon="15.1560942"><ele>294.0</ele><time>2026-03-28T08:33:54.511Z</time></trkpt><trkpt lat="36.976605" lon="15.1560181"><ele>294.0</ele><time>2026-03-28T08:33:55.51Z</time></trkpt><trkpt lat="36.9766765" lon="15.1559326"><ele>294.0</ele><time>2026-03-28T08:33:56.512Z</time></trkpt><trkpt lat="36.9767204" lon="15.1558246"><ele>294.0</ele><time>2026-03-28T08:33:57.51Z</time></trkpt><trkpt lat="36.9767367" lon="15.1556847"><ele>294.0</ele><time>2026-03-28T08:33:58.511Z</time></trkpt><trkpt lat="36.9767355" lon="15.1555356"><ele>296.0</ele><time>2026-03-28T08:33:59.512Z</time></trkpt><trkpt lat="36.976739" lon="15.1553772"><ele>298.0</ele><time>2026-03-28T08:34:00.511Z</time></trkpt><trkpt lat="36.9767491" lon="15.1552291"><ele>300.0</ele><time>2026-03-28T08:34:01.512Z</time></trkpt><trkpt lat="36.976781" lon="15.1550942"><ele>302.0</ele><time>2026-03-28T08:34:02.511Z</time></trkpt><trkpt lat="36.9768345" lon="15.1549542"><ele>302.5</ele><time>2026-03-28T08:34:03.511Z</time></trkpt><trkpt lat="36.9768998" lon="15.1548068"><ele>303.0</ele><time>2026-03-28T08:34:04.511Z</time></trkpt><trkpt lat="36.9769681" lon="15.1546512"><ele>303.5</ele><time>2026-03-28T08:34:05.51Z</time></trkpt><trkpt lat="36.9770377" lon="15.1545007"><ele>304.0</ele><time>2026-03-28T08:34:06.511Z</time></trkpt><trkpt lat="36.977103" lon="15.1543422"><ele>304.0</ele><time>2026-03-28T08:34:07.511Z</time></trkpt><trkpt lat="36.9771617" lon="15.1541607"><ele>304.0</ele><time>2026-03-28T08:34:08.51Z</time></trkpt><trkpt lat="36.9772185" lon="15.1539603"><ele>304.0</ele><time>2026-03-28T08:34:09.512Z</time></trkpt><trkpt lat="36.9772698" lon="15.1537593"><ele>305.0</ele><time>2026-03-28T08:34:10.51Z</time></trkpt><trkpt lat="36.9773267" lon="15.1535376"><ele>306.0</ele><time>2026-03-28T08:34:11.51Z</time></trkpt><trkpt lat="36.9773878" lon="15.1533381"><ele>307.0</ele><time>2026-03-28T08:34:12.511Z</time></trkpt><trkpt lat="36.9774441" lon="15.1531475"><ele>306.66666666666663</ele><time>2026-03-28T08:34:13.51Z</time></trkpt><trkpt lat="36.9775094" lon="15.1529556"><ele>306.3333333333333</ele><time>2026-03-28T08:34:14.511Z</time></trkpt><trkpt lat="36.9775793" lon="15.152757"><ele>306.0</ele><time>2026-03-28T08:34:15.511Z</time></trkpt><trkpt lat="36.9776459" lon="15.1525536"><ele>308.0</ele><time>2026-03-28T08:34:16.51Z</time></trkpt><trkpt lat="36.97772" lon="15.1523461"><ele>310.0</ele><time>2026-03-28T08:34:17.512Z</time></trkpt><trkpt lat="36.9778019" lon="15.1521272"><ele>312.0</ele><time>2026-03-28T08:34:18.512Z</time></trkpt><trkpt lat="36.9778831" lon="15.1519027"><ele>312.0</ele><time>2026-03-28T08:34:19.511Z</time></trkpt><trkpt lat="36.9779693" lon="15.1516692"><ele>312.0</ele><time>2026-03-28T08:34:20.51Z</time></trkpt><trkpt lat="36.9780531" lon="15.1514308"><ele>312.0</ele><time>2026-03-28T08:34:21.511Z</time></trkpt><trkpt lat="36.9781462" lon="15.1511959"><ele>313.6666666666667</ele><time>2026-03-28T08:34:22.511Z</time></trkpt><trkpt lat="36.9782301" lon="15.1509766"><ele>315.33333333333337</ele><time>2026-03-28T08:34:23.511Z</time></trkpt><trkpt lat="36.978302" lon="15.150776"><ele>317.0</ele><time>2026-03-28T08:34:24.51Z</time></trkpt><trkpt lat="36.9783651" lon="15.1505878"><ele>319.6666666666667</ele><time>2026-03-28T08:34:25.511Z</time></trkpt><trkpt lat="36.978423" lon="15.1504149"><ele>322.3333333333333</ele><time>2026-03-28T08:34:26.511Z</time></trkpt><trkpt lat="36.9784804" lon="15.1502362"><ele>325.0</ele><time>2026-03-28T08:34:27.511Z</time></trkpt><trkpt lat="36.9785389" lon="15.150058"><ele>325.0</ele><time>2026-03-28T08:34:28.512Z</time></trkpt><trkpt lat="36.9785995" lon="15.1498645"><ele>325.0</ele><time>2026-03-28T08:34:29.511Z</time></trkpt><trkpt lat="36.9786591" lon="15.149671"><ele>325.0</ele><time>2026-03-28T08:34:30.511Z</time></trkpt><trkpt lat="36.9787135" lon="15.149495"><ele>325.0</ele><time>2026-03-28T08:34:31.51Z</time></trkpt><trkpt lat="36.9787675" lon="15.1493227"><ele>325.0</ele><time>2026-03-28T08:34:32.511Z</time></trkpt><trkpt lat="36.9788304" lon="15.1491583"><ele>325.0</ele><time>2026-03-28T08:34:33.51Z</time></trkpt><trkpt lat="36.9789108" lon="15.1489961"><ele>325.0</ele><time>2026-03-28T08:34:34.511Z</time></trkpt><trkpt lat="36.9789948" lon="15.1488219"><ele>325.0</ele><time>2026-03-28T08:34:35.511Z</time></trkpt><trkpt lat="36.9790774" lon="15.1486508"><ele>325.0</ele><time>2026-03-28T08:34:36.511Z</time></trkpt><trkpt lat="36.979165" lon="15.148484"><ele>325.0</ele><time>2026-03-28T08:34:37.511Z</time></trkpt><trkpt lat="36.9792475" lon="15.148323"><ele>325.0</ele><time>2026-03-28T08:34:38.512Z</time></trkpt><trkpt lat="36.9793283" lon="15.1481676"><ele>325.0</ele><time>2026-03-28T08:34:39.512Z</time></trkpt><trkpt lat="36.9794074" lon="15.1480209"><ele>325.0</ele><time>2026-03-28T08:34:40.51Z</time></trkpt><trkpt lat="36.9794652" lon="15.1478657"><ele>325.0</ele><time>2026-03-28T08:34:41.51Z</time></trkpt><trkpt lat="36.9795089" lon="15.1476939"><ele>325.0</ele><time>2026-03-28T08:34:42.51Z</time></trkpt><trkpt lat="36.9795474" lon="15.147523"><ele>325.0</ele><time>2026-03-28T08:34:43.511Z</time></trkpt><trkpt lat="36.9795858" lon="15.1473347"><ele>325.0</ele><time>2026-03-28T08:34:44.512Z</time></trkpt><trkpt lat="36.9796277" lon="15.1471426"><ele>325.0</ele><time>2026-03-28T08:34:45.512Z</time></trkpt><trkpt lat="36.9796811" lon="15.1469478"><ele>325.0</ele><time>2026-03-28T08:34:46.51Z</time></trkpt><trkpt lat="36.9797346" lon="15.1467679"><ele>325.0</ele><time>2026-03-28T08:34:47.511Z</time></trkpt><trkpt lat="36.9797901" lon="15.1465949"><ele>325.3333333333333</ele><time>2026-03-28T08:34:48.511Z</time></trkpt><trkpt lat="36.9798435" lon="15.1464124"><ele>325.6666666666667</ele><time>2026-03-28T08:34:49.512Z</time></trkpt><trkpt lat="36.9798997" lon="15.1462338"><ele>326.0</ele><time>2026-03-28T08:34:50.51Z</time></trkpt><trkpt lat="36.9799561" lon="15.1460589"><ele>326.33333333333337</ele><time>2026-03-28T08:34:51.51Z</time></trkpt><trkpt lat="36.9800242" lon="15.1458819"><ele>326.6666666666667</ele><time>2026-03-28T08:34:52.511Z</time></trkpt><trkpt lat="36.9800976" lon="15.1457054"><ele>327.0</ele><time>2026-03-28T08:34:53.512Z</time></trkpt><trkpt lat="36.980178" lon="15.1455306"><ele>327.3333333333333</ele><time>2026-03-28T08:34:54.511Z</time></trkpt><trkpt lat="36.9802545" lon="15.1453614"><ele>327.66666666666663</ele><time>2026-03-28T08:34:55.511Z</time></trkpt><trkpt lat="36.980331" lon="15.1451824"><ele>328.0</ele><time>2026-03-28T08:34:56.51Z</time></trkpt><trkpt lat="36.9804093" lon="15.1450042"><ele>327.66666666666663</ele><time>2026-03-28T08:34:57.511Z</time></trkpt><trkpt lat="36.9804841" lon="15.1448131"><ele>327.3333333333333</ele><time>2026-03-28T08:34:58.51Z</time></trkpt><trkpt lat="36.980558" lon="15.1446131"><ele>327.0</ele><time>2026-03-28T08:34:59.511Z</time></trkpt><trkpt lat="36.9806222" lon="15.144423"><ele>327.0</ele><time>2026-03-28T08:35:00.511Z</time></trkpt><trkpt lat="36.9806858" lon="15.1442453"><ele>327.0</ele><time>2026-03-28T08:35:01.512Z</time></trkpt><trkpt lat="36.9807503" lon="15.1440841"><ele>327.0</ele><time>2026-03-28T08:35:02.511Z</time></trkpt><trkpt lat="36.9808066" lon="15.143924"><ele>327.0</ele><time>2026-03-28T08:35:03.511Z</time></trkpt><trkpt lat="36.9808529" lon="15.1437608"><ele>327.0</ele><time>2026-03-28T08:35:04.51Z</time></trkpt><trkpt lat="36.9808982" lon="15.1435798"><ele>327.0</ele><time>2026-03-28T08:35:05.51Z</time></trkpt><trkpt lat="36.9809421" lon="15.1433981"><ele>327.0</ele><time>2026-03-28T08:35:06.511Z</time></trkpt><trkpt lat="36.9809911" lon="15.143203"><ele>326.3333333333333</ele><time>2026-03-28T08:35:07.511Z</time></trkpt><trkpt lat="36.9810308" lon="15.1430165"><ele>325.66666666666663</ele><time>2026-03-28T08:35:08.511Z</time></trkpt><trkpt lat="36.9810722" lon="15.1428362"><ele>325.0</ele><time>2026-03-28T08:35:09.511Z</time></trkpt><trkpt lat="36.9811157" lon="15.1426479"><ele>325.0</ele><time>2026-03-28T08:35:10.511Z</time></trkpt><trkpt lat="36.9811539" lon="15.1424702"><ele>325.0</ele><time>2026-03-28T08:35:11.512Z</time></trkpt><trkpt lat="36.981194" lon="15.1422942"><ele>325.0</ele><time>2026-03-28T08:35:12.512Z</time></trkpt><trkpt lat="36.9812308" lon="15.1421251"><ele>325.0</ele><time>2026-03-28T08:35:13.51Z</time></trkpt><trkpt lat="36.9812633" lon="15.1419445"><ele>325.0</ele><time>2026-03-28T08:35:14.512Z</time></trkpt><trkpt lat="36.9812874" lon="15.1417445"><ele>325.0</ele><time>2026-03-28T08:35:15.511Z</time></trkpt><trkpt lat="36.9813141" lon="15.1415335"><ele>325.0</ele><time>2026-03-28T08:35:16.511Z</time></trkpt><trkpt lat="36.981345" lon="15.1413163"><ele>324.66666666666663</ele><time>2026-03-28T08:35:17.51Z</time></trkpt><trkpt lat="36.9813763" lon="15.1410989"><ele>324.3333333333333</ele><time>2026-03-28T08:35:18.51Z</time></trkpt><trkpt lat="36.9814076" lon="15.14088"><ele>324.0</ele><time>2026-03-28T08:35:19.511Z</time></trkpt><trkpt lat="36.9814405" lon="15.1406665"><ele>324.0</ele><time>2026-03-28T08:35:20.51Z</time></trkpt><trkpt lat="36.9814711" lon="15.1404592"><ele>324.0</ele><time>2026-03-28T08:35:21.51Z</time></trkpt><trkpt lat="36.9815031" lon="15.1402514"><ele>324.0</ele><time>2026-03-28T08:35:22.511Z</time></trkpt><trkpt lat="36.9815369" lon="15.1400519"><ele>323.6666666666667</ele><time>2026-03-28T08:35:23.51Z</time></trkpt><trkpt lat="36.9815633" lon="15.1398654"><ele>323.33333333333337</ele><time>2026-03-28T08:35:24.51Z</time></trkpt><trkpt lat="36.9815896" lon="15.139675"><ele>323.0</ele><time>2026-03-28T08:35:25.511Z</time></trkpt><trkpt lat="36.9816159" lon="15.1394904"><ele>323.0</ele><time>2026-03-28T08:35:26.51Z</time></trkpt><trkpt lat="36.9816467" lon="15.139292"><ele>323.0</ele><time>2026-03-28T08:35:27.511Z</time></trkpt><trkpt lat="36.981689" lon="15.1390901"><ele>323.0</ele><time>2026-03-28T08:35:28.51Z</time></trkpt><trkpt lat="36.9817385" lon="15.1388874"><ele>323.6666666666667</ele><time>2026-03-28T08:35:29.512Z</time></trkpt><trkpt lat="36.9817931" lon="15.138677"><ele>324.3333333333333</ele><time>2026-03-28T08:35:30.51Z</time></trkpt><trkpt lat="36.9818493" lon="15.1384743"><ele>325.0</ele><time>2026-03-28T08:35:31.51Z</time></trkpt><trkpt lat="36.9819087" lon="15.1382817"><ele>324.75</ele><time>2026-03-28T08:35:32.511Z</time></trkpt><trkpt lat="36.9819612" lon="15.1381117"><ele>324.5</ele><time>2026-03-28T08:35:33.511Z</time></trkpt><trkpt lat="36.9820118" lon="15.1379659"><ele>324.25</ele><time>2026-03-28T08:35:34.51Z</time></trkpt><trkpt lat="36.982065" lon="15.137824"><ele>324.0</ele><time>2026-03-28T08:35:35.511Z</time></trkpt><trkpt lat="36.9821216" lon="15.1376693"><ele>324.0</ele><time>2026-03-28T08:35:36.512Z</time></trkpt><trkpt lat="36.9821898" lon="15.1375145"><ele>324.0</ele><time>2026-03-28T08:35:37.511Z</time></trkpt><trkpt lat="36.9822602" lon="15.1373492"><ele>324.0</ele><time>2026-03-28T08:35:38.511Z</time></trkpt><trkpt lat="36.9823313" lon="15.137188"><ele>324.0</ele><time>2026-03-28T08:35:39.51Z</time></trkpt><trkpt lat="36.9824038" lon="15.1370433"><ele>323.75</ele><time>2026-03-28T08:35:40.511Z</time></trkpt><trkpt lat="36.9824716" lon="15.1369011"><ele>323.5</ele><time>2026-03-28T08:35:41.511Z</time></trkpt><trkpt lat="36.9825268" lon="15.1367525"><ele>323.25</ele><time>2026-03-28T08:35:42.511Z</time></trkpt><trkpt lat="36.9825685" lon="15.1365877"><ele>323.0</ele><time>2026-03-28T08:35:43.511Z</time></trkpt><trkpt lat="36.9826058" lon="15.1364258"><ele>324.0</ele><time>2026-03-28T08:35:44.511Z</time></trkpt><trkpt lat="36.9826615" lon="15.1362594"><ele>325.0</ele><time>2026-03-28T08:35:45.509Z</time></trkpt><trkpt lat="36.9827173" lon="15.1360931"><ele>326.0</ele><time>2026-03-28T08:35:46.511Z</time></trkpt><trkpt lat="36.9827763" lon="15.1359195"><ele>327.0</ele><time>2026-03-28T08:35:47.512Z</time></trkpt><trkpt lat="36.9828503" lon="15.1357489"><ele>327.3333333333333</ele><time>2026-03-28T08:35:48.511Z</time></trkpt><trkpt lat="36.9829369" lon="15.1355833"><ele>327.66666666666663</ele><time>2026-03-28T08:35:49.51Z</time></trkpt><trkpt lat="36.983024" lon="15.1354293"><ele>328.0</ele><time>2026-03-28T08:35:50.511Z</time></trkpt><trkpt lat="36.9831029" lon="15.1352803"><ele>328.0</ele><time>2026-03-28T08:35:51.51Z</time></trkpt><trkpt lat="36.983163" lon="15.1351214"><ele>328.0</ele><time>2026-03-28T08:35:52.511Z</time></trkpt><trkpt lat="36.9832332" lon="15.1349644"><ele>328.0</ele><time>2026-03-28T08:35:53.511Z</time></trkpt><trkpt lat="36.9832984" lon="15.1348081"><ele>328.0</ele><time>2026-03-28T08:35:54.511Z</time></trkpt><trkpt lat="36.9833537" lon="15.1346537"><ele>328.75</ele><time>2026-03-28T08:35:55.511Z</time></trkpt><trkpt lat="36.9833892" lon="15.1344989"><ele>329.5</ele><time>2026-03-28T08:35:56.511Z</time></trkpt><trkpt lat="36.983399" lon="15.1343474"><ele>330.25</ele><time>2026-03-28T08:35:57.511Z</time></trkpt><trkpt lat="36.9833777" lon="15.1341911"><ele>331.0</ele><time>2026-03-28T08:35:58.51Z</time></trkpt><trkpt lat="36.9833403" lon="15.1340428"><ele>332.0</ele><time>2026-03-28T08:35:59.511Z</time></trkpt><trkpt lat="36.9833024" lon="15.1338875"><ele>333.0</ele><time>2026-03-28T08:36:00.511Z</time></trkpt><trkpt lat="36.9832665" lon="15.133743"><ele>334.0</ele><time>2026-03-28T08:36:01.512Z</time></trkpt><trkpt lat="36.9832241" lon="15.1336092"><ele>335.0</ele><time>2026-03-28T08:36:02.512Z</time></trkpt><trkpt lat="36.9831561" lon="15.1335113"><ele>335.0</ele><time>2026-03-28T08:36:03.511Z</time></trkpt><trkpt lat="36.9830766" lon="15.1334339"><ele>335.0</ele><time>2026-03-28T08:36:04.512Z</time></trkpt><trkpt lat="36.982995" lon="15.1333902"><ele>335.0</ele><time>2026-03-28T08:36:05.51Z</time></trkpt><trkpt lat="36.9829282" lon="15.13334"><ele>335.0</ele><time>2026-03-28T08:36:06.51Z</time></trkpt><trkpt lat="36.982886" lon="15.1332563"><ele>335.0</ele><time>2026-03-28T08:36:07.511Z</time></trkpt><trkpt lat="36.9828661" lon="15.1331391"><ele>335.0</ele><time>2026-03-28T08:36:08.512Z</time></trkpt><trkpt lat="36.9828408" lon="15.1329951"><ele>336.75</ele><time>2026-03-28T08:36:09.51Z</time></trkpt><trkpt lat="36.9828211" lon="15.1328263"><ele>338.5</ele><time>2026-03-28T08:36:10.509Z</time></trkpt><trkpt lat="36.9828047" lon="15.1326741"><ele>340.25</ele><time>2026-03-28T08:36:11.51Z</time></trkpt><trkpt lat="36.9827802" lon="15.1325116"><ele>342.0</ele><time>2026-03-28T08:36:12.511Z</time></trkpt><trkpt lat="36.9827597" lon="15.1323389"><ele>343.5</ele><time>2026-03-28T08:36:13.511Z</time></trkpt><trkpt lat="36.9827334" lon="15.1321696"><ele>345.0</ele><time>2026-03-28T08:36:14.511Z</time></trkpt><trkpt lat="36.982721" lon="15.1319934"><ele>346.5</ele><time>2026-03-28T08:36:15.511Z</time></trkpt><trkpt lat="36.9827247" lon="15.1318122"><ele>348.0</ele><time>2026-03-28T08:36:16.512Z</time></trkpt><trkpt lat="36.9827289" lon="15.1316412"><ele>348.75</ele><time>2026-03-28T08:36:17.51Z</time></trkpt><trkpt lat="36.9827214" lon="15.131489"><ele>349.5</ele><time>2026-03-28T08:36:18.511Z</time></trkpt><trkpt lat="36.9826918" lon="15.1313379"><ele>350.25</ele><time>2026-03-28T08:36:19.512Z</time></trkpt><trkpt lat="36.9826387" lon="15.131192"><ele>351.0</ele><time>2026-03-28T08:36:20.511Z</time></trkpt><trkpt lat="36.9825785" lon="15.1310435"><ele>351.0</ele><time>2026-03-28T08:36:21.511Z</time></trkpt><trkpt lat="36.982497" lon="15.1309027"><ele>351.0</ele><time>2026-03-28T08:36:22.511Z</time></trkpt><trkpt lat="36.9824295" lon="15.1307379"><ele>351.0</ele><time>2026-03-28T08:36:23.51Z</time></trkpt><trkpt lat="36.9823647" lon="15.1305588"><ele>351.0</ele><time>2026-03-28T08:36:24.511Z</time></trkpt><trkpt lat="36.9823039" lon="15.1303655"><ele>351.6666666666667</ele><time>2026-03-28T08:36:25.511Z</time></trkpt><trkpt lat="36.9822345" lon="15.1301661"><ele>352.33333333333337</ele><time>2026-03-28T08:36:26.511Z</time></trkpt><trkpt lat="36.9821696" lon="15.1299877"><ele>353.0</ele><time>2026-03-28T08:36:27.511Z</time></trkpt><trkpt lat="36.9821052" lon="15.1298125"><ele>354.33333333333337</ele><time>2026-03-28T08:36:28.51Z</time></trkpt><trkpt lat="36.9820386" lon="15.1296363"><ele>355.6666666666667</ele><time>2026-03-28T08:36:29.511Z</time></trkpt><trkpt lat="36.9819684" lon="15.1294544"><ele>357.0</ele><time>2026-03-28T08:36:30.511Z</time></trkpt><trkpt lat="36.9819076" lon="15.1292679"><ele>357.0</ele><time>2026-03-28T08:36:31.51Z</time></trkpt><trkpt lat="36.9818475" lon="15.1291004"><ele>357.0</ele><time>2026-03-28T08:36:32.512Z</time></trkpt><trkpt lat="36.9817852" lon="15.128953"><ele>357.0</ele><time>2026-03-28T08:36:33.511Z</time></trkpt><trkpt lat="36.9817066" lon="15.1288238"><ele>357.0</ele><time>2026-03-28T08:36:34.511Z</time></trkpt><trkpt lat="36.9816098" lon="15.1287035"><ele>359.25</ele><time>2026-03-28T08:36:35.51Z</time></trkpt><trkpt lat="36.9815066" lon="15.1285989"><ele>361.5</ele><time>2026-03-28T08:36:36.511Z</time></trkpt><trkpt lat="36.9813851" lon="15.1285053"><ele>363.75</ele><time>2026-03-28T08:36:37.512Z</time></trkpt><trkpt lat="36.9812597" lon="15.128418"><ele>366.0</ele><time>2026-03-28T08:36:38.511Z</time></trkpt><trkpt lat="36.9811213" lon="15.1283366"><ele>366.0</ele><time>2026-03-28T08:36:39.51Z</time></trkpt><trkpt lat="36.9809922" lon="15.1282492"><ele>366.0</ele><time>2026-03-28T08:36:40.51Z</time></trkpt><trkpt lat="36.9808642" lon="15.1281463"><ele>366.0</ele><time>2026-03-28T08:36:41.512Z</time></trkpt><trkpt lat="36.9807591" lon="15.128038"><ele>366.0</ele><time>2026-03-28T08:36:42.512Z</time></trkpt><trkpt lat="36.98066" lon="15.1279229"><ele>367.75</ele><time>2026-03-28T08:36:43.509Z</time></trkpt><trkpt lat="36.9805638" lon="15.1277965"><ele>369.5</ele><time>2026-03-28T08:36:44.51Z</time></trkpt><trkpt lat="36.9804677" lon="15.1276872"><ele>371.25</ele><time>2026-03-28T08:36:45.51Z</time></trkpt><trkpt lat="36.9803841" lon="15.1275915"><ele>373.0</ele><time>2026-03-28T08:36:46.511Z</time></trkpt><trkpt lat="36.9803131" lon="15.127502"><ele>373.0</ele><time>2026-03-28T08:36:47.51Z</time></trkpt><trkpt lat="36.9802865" lon="15.1274086"><ele>373.0</ele><time>2026-03-28T08:36:48.512Z</time></trkpt><trkpt lat="36.9802845" lon="15.1272902"><ele>373.0</ele><time>2026-03-28T08:36:49.51Z</time></trkpt><trkpt lat="36.980308" lon="15.1271522"><ele>373.0</ele><time>2026-03-28T08:36:50.511Z</time></trkpt><trkpt lat="36.9803368" lon="15.1269952"><ele>373.0</ele><time>2026-03-28T08:36:51.51Z</time></trkpt><trkpt lat="36.9803741" lon="15.1268368"><ele>373.5</ele><time>2026-03-28T08:36:52.511Z</time></trkpt><trkpt lat="36.9804097" lon="15.1266874"><ele>374.0</ele><time>2026-03-28T08:36:53.51Z</time></trkpt><trkpt lat="36.980463" lon="15.1265482"><ele>374.5</ele><time>2026-03-28T08:36:54.51Z</time></trkpt><trkpt lat="36.9805212" lon="15.1264136"><ele>375.0</ele><time>2026-03-28T08:36:55.51Z</time></trkpt><trkpt lat="36.9805743" lon="15.1262834"><ele>375.0</ele><time>2026-03-28T08:36:56.511Z</time></trkpt><trkpt lat="36.9806187" lon="15.1261559"><ele>375.0</ele><time>2026-03-28T08:36:57.512Z</time></trkpt><trkpt lat="36.9806585" lon="15.1260399"><ele>375.0</ele><time>2026-03-28T08:36:58.511Z</time></trkpt><trkpt lat="36.9806922" lon="15.1259175"><ele>375.0</ele><time>2026-03-28T08:36:59.512Z</time></trkpt><trkpt lat="36.9807153" lon="15.1257733"><ele>375.0</ele><time>2026-03-28T08:37:00.51Z</time></trkpt><trkpt lat="36.980738" lon="15.1256091"><ele>374.25</ele><time>2026-03-28T08:37:01.511Z</time></trkpt><trkpt lat="36.980761" lon="15.1254558"><ele>373.5</ele><time>2026-03-28T08:37:02.511Z</time></trkpt><trkpt lat="36.9807841" lon="15.1253018"><ele>372.75</ele><time>2026-03-28T08:37:03.511Z</time></trkpt><trkpt lat="36.9808076" lon="15.1251626"><ele>372.0</ele><time>2026-03-28T08:37:04.51Z</time></trkpt><trkpt lat="36.9808363" lon="15.1250492"><ele>372.0</ele><time>2026-03-28T08:37:05.51Z</time></trkpt><trkpt lat="36.9808851" lon="15.124943"><ele>372.0</ele><time>2026-03-28T08:37:06.511Z</time></trkpt><trkpt lat="36.9809618" lon="15.1248267"><ele>372.0</ele><time>2026-03-28T08:37:07.51Z</time></trkpt><trkpt lat="36.9810445" lon="15.1247093"><ele>372.0</ele><time>2026-03-28T08:37:08.51Z</time></trkpt><trkpt lat="36.9811266" lon="15.1245973"><ele>372.0</ele><time>2026-03-28T08:37:09.51Z</time></trkpt><trkpt lat="36.9812084" lon="15.1244725"><ele>372.0</ele><time>2026-03-28T08:37:10.51Z</time></trkpt><trkpt lat="36.9812804" lon="15.1243534"><ele>372.0</ele><time>2026-03-28T08:37:11.509Z</time></trkpt><trkpt lat="36.9813517" lon="15.124231"><ele>372.0</ele><time>2026-03-28T08:37:12.51Z</time></trkpt><trkpt lat="36.9814274" lon="15.1241064"><ele>372.25</ele><time>2026-03-28T08:37:13.512Z</time></trkpt><trkpt lat="36.9815024" lon="15.123971"><ele>372.5</ele><time>2026-03-28T08:37:14.509Z</time></trkpt><trkpt lat="36.9815739" lon="15.1238477"><ele>372.75</ele><time>2026-03-28T08:37:15.51Z</time></trkpt><trkpt lat="36.9816402" lon="15.1237122"><ele>373.0</ele><time>2026-03-28T08:37:16.511Z</time></trkpt><trkpt lat="36.9816981" lon="15.1235565"><ele>373.0</ele><time>2026-03-28T08:37:17.51Z</time></trkpt><trkpt lat="36.9817568" lon="15.1233805"><ele>373.0</ele><time>2026-03-28T08:37:18.509Z</time></trkpt><trkpt lat="36.9818155" lon="15.1231994"><ele>373.0</ele><time>2026-03-28T08:37:19.51Z</time></trkpt><trkpt lat="36.9818776" lon="15.1230273"><ele>373.0</ele><time>2026-03-28T08:37:20.511Z</time></trkpt><trkpt lat="36.9819405" lon="15.1228589"><ele>373.0</ele><time>2026-03-28T08:37:21.511Z</time></trkpt><trkpt lat="36.9820081" lon="15.1226868"><ele>373.0</ele><time>2026-03-28T08:37:22.51Z</time></trkpt><trkpt lat="36.9820816" lon="15.1225151"><ele>372.0</ele><time>2026-03-28T08:37:23.51Z</time></trkpt><trkpt lat="36.9821522" lon="15.1223421"><ele>371.0</ele><time>2026-03-28T08:37:24.512Z</time></trkpt><trkpt lat="36.9822085" lon="15.1221703"><ele>370.0</ele><time>2026-03-28T08:37:25.51Z</time></trkpt><trkpt lat="36.9822527" lon="15.1219919"><ele>370.0</ele><time>2026-03-28T08:37:26.51Z</time></trkpt><trkpt lat="36.9822894" lon="15.1218023"><ele>370.0</ele><time>2026-03-28T08:37:27.511Z</time></trkpt><trkpt lat="36.9823299" lon="15.1216104"><ele>370.0</ele><time>2026-03-28T08:37:28.51Z</time></trkpt><trkpt lat="36.9823781" lon="15.1214249"><ele>369.0</ele><time>2026-03-28T08:37:29.51Z</time></trkpt><trkpt lat="36.9824348" lon="15.1212524"><ele>368.0</ele><time>2026-03-28T08:37:30.51Z</time></trkpt><trkpt lat="36.9824884" lon="15.1210832"><ele>367.0</ele><time>2026-03-28T08:37:31.511Z</time></trkpt><trkpt lat="36.9825382" lon="15.1209196"><ele>366.0</ele><time>2026-03-28T08:37:32.51Z</time></trkpt><trkpt lat="36.9825749" lon="15.1207539"><ele>363.0</ele><time>2026-03-28T08:37:33.51Z</time></trkpt><trkpt lat="36.982602" lon="15.1205906"><ele>360.0</ele><time>2026-03-28T08:37:34.511Z</time></trkpt><trkpt lat="36.9826173" lon="15.1204264"><ele>357.0</ele><time>2026-03-28T08:37:35.51Z</time></trkpt><trkpt lat="36.9826374" lon="15.1202503"><ele>354.0</ele><time>2026-03-28T08:37:36.51Z</time></trkpt><trkpt lat="36.9826562" lon="15.1200858"><ele>354.0</ele><time>2026-03-28T08:37:37.509Z</time></trkpt><trkpt lat="36.9826828" lon="15.119925"><ele>354.0</ele><time>2026-03-28T08:37:38.51Z</time></trkpt><trkpt lat="36.9827046" lon="15.1197749"><ele>354.0</ele><time>2026-03-28T08:37:39.512Z</time></trkpt><trkpt lat="36.9827077" lon="15.1196221"><ele>354.0</ele><time>2026-03-28T08:37:40.511Z</time></trkpt><trkpt lat="36.9826966" lon="15.1194832"><ele>352.25</ele><time>2026-03-28T08:37:41.51Z</time></trkpt><trkpt lat="36.982666" lon="15.1193527"><ele>350.5</ele><time>2026-03-28T08:37:42.51Z</time></trkpt><trkpt lat="36.9826343" lon="15.1192094"><ele>348.75</ele><time>2026-03-28T08:37:43.511Z</time></trkpt><trkpt lat="36.9825999" lon="15.1190675"><ele>347.0</ele><time>2026-03-28T08:37:44.509Z</time></trkpt><trkpt lat="36.9825636" lon="15.1189283"><ele>345.40000000000003</ele><time>2026-03-28T08:37:45.512Z</time></trkpt><trkpt lat="36.9825156" lon="15.1188125"><ele>343.8</ele><time>2026-03-28T08:37:46.51Z</time></trkpt><trkpt lat="36.982453" lon="15.1187068"><ele>342.2</ele><time>2026-03-28T08:37:47.51Z</time></trkpt><trkpt lat="36.9823804" lon="15.1186115"><ele>340.6</ele><time>2026-03-28T08:37:48.51Z</time></trkpt><trkpt lat="36.9822749" lon="15.1185241"><ele>339.0</ele><time>2026-03-28T08:37:49.51Z</time></trkpt><trkpt lat="36.9821804" lon="15.1184569"><ele>343.79999999999995</ele><time>2026-03-28T08:37:50.511Z</time></trkpt><trkpt lat="36.9820915" lon="15.1183952"><ele>348.59999999999997</ele><time>2026-03-28T08:37:51.512Z</time></trkpt><trkpt lat="36.9820215" lon="15.1183237"><ele>353.4</ele><time>2026-03-28T08:37:52.51Z</time></trkpt><trkpt lat="36.9819594" lon="15.1182396"><ele>358.2</ele><time>2026-03-28T08:37:53.51Z</time></trkpt><trkpt lat="36.9819125" lon="15.1181225"><ele>363.0</ele><time>2026-03-28T08:37:54.511Z</time></trkpt><trkpt lat="36.9818768" lon="15.1179859"><ele>363.75</ele><time>2026-03-28T08:37:55.51Z</time></trkpt><trkpt lat="36.9818464" lon="15.1178331"><ele>364.5</ele><time>2026-03-28T08:37:56.51Z</time></trkpt><trkpt lat="36.9818177" lon="15.1176891"><ele>365.25</ele><time>2026-03-28T08:37:57.511Z</time></trkpt><trkpt lat="36.9817903" lon="15.1175401"><ele>366.0</ele><time>2026-03-28T08:37:58.51Z</time></trkpt><trkpt lat="36.9817555" lon="15.1173829"><ele>367.25</ele><time>2026-03-28T08:37:59.511Z</time></trkpt><trkpt lat="36.9817255" lon="15.117221"><ele>368.5</ele><time>2026-03-28T08:38:00.51Z</time></trkpt><trkpt lat="36.9816979" lon="15.1170547"><ele>369.75</ele><time>2026-03-28T08:38:01.511Z</time></trkpt><trkpt lat="36.9816712" lon="15.1168872"><ele>371.0</ele><time>2026-03-28T08:38:02.51Z</time></trkpt><trkpt lat="36.9816486" lon="15.1167129"><ele>372.5</ele><time>2026-03-28T08:38:03.509Z</time></trkpt><trkpt lat="36.9816255" lon="15.1165508"><ele>374.0</ele><time>2026-03-28T08:38:04.511Z</time></trkpt><trkpt lat="36.9815991" lon="15.1163903"><ele>375.5</ele><time>2026-03-28T08:38:05.509Z</time></trkpt><trkpt lat="36.9815706" lon="15.1162201"><ele>377.0</ele><time>2026-03-28T08:38:06.51Z</time></trkpt><trkpt lat="36.9815397" lon="15.1160527"><ele>377.0</ele><time>2026-03-28T08:38:07.51Z</time></trkpt><trkpt lat="36.981516" lon="15.1158926"><ele>377.0</ele><time>2026-03-28T08:38:08.51Z</time></trkpt><trkpt lat="36.9814946" lon="15.1157393"><ele>377.0</ele><time>2026-03-28T08:38:09.511Z</time></trkpt><trkpt lat="36.9814881" lon="15.1156002"><ele>377.0</ele><time>2026-03-28T08:38:10.512Z</time></trkpt><trkpt lat="36.9814945" lon="15.1154696"><ele>377.75</ele><time>2026-03-28T08:38:11.511Z</time></trkpt><trkpt lat="36.981521" lon="15.1153261"><ele>378.5</ele><time>2026-03-28T08:38:12.511Z</time></trkpt><trkpt lat="36.9815673" lon="15.1151808"><ele>379.25</ele><time>2026-03-28T08:38:13.51Z</time></trkpt><trkpt lat="36.9816099" lon="15.1150209"><ele>380.0</ele><time>2026-03-28T08:38:14.51Z</time></trkpt><trkpt lat="36.9816492" lon="15.1148717"><ele>380.5</ele><time>2026-03-28T08:38:15.511Z</time></trkpt><trkpt lat="36.9817019" lon="15.1147196"><ele>381.0</ele><time>2026-03-28T08:38:16.511Z</time></trkpt><trkpt lat="36.9817469" lon="15.1145818"><ele>381.5</ele><time>2026-03-28T08:38:17.51Z</time></trkpt><trkpt lat="36.981788" lon="15.1144312"><ele>382.0</ele><time>2026-03-28T08:38:18.512Z</time></trkpt><trkpt lat="36.9818148" lon="15.1142706"><ele>382.0</ele><time>2026-03-28T08:38:19.511Z</time></trkpt><trkpt lat="36.9818256" lon="15.1141211"><ele>382.0</ele><time>2026-03-28T08:38:20.511Z</time></trkpt><trkpt lat="36.9818268" lon="15.1139811"><ele>382.0</ele><time>2026-03-28T08:38:21.51Z</time></trkpt><trkpt lat="36.9818096" lon="15.1138354"><ele>382.0</ele><time>2026-03-28T08:38:22.51Z</time></trkpt><trkpt lat="36.9817828" lon="15.1136759"><ele>383.0</ele><time>2026-03-28T08:38:23.51Z</time></trkpt><trkpt lat="36.9817675" lon="15.1135024"><ele>384.0</ele><time>2026-03-28T08:38:24.511Z</time></trkpt><trkpt lat="36.9817546" lon="15.1133396"><ele>385.0</ele><time>2026-03-28T08:38:25.51Z</time></trkpt><trkpt lat="36.9817416" lon="15.1131695"><ele>386.0</ele><time>2026-03-28T08:38:26.511Z</time></trkpt><trkpt lat="36.9817275" lon="15.1129918"><ele>386.5</ele><time>2026-03-28T08:38:27.51Z</time></trkpt><trkpt lat="36.9817142" lon="15.112804"><ele>387.0</ele><time>2026-03-28T08:38:28.511Z</time></trkpt><trkpt lat="36.9817027" lon="15.1126226"><ele>387.5</ele><time>2026-03-28T08:38:29.511Z</time></trkpt><trkpt lat="36.9816824" lon="15.1124447"><ele>388.0</ele><time>2026-03-28T08:38:30.511Z</time></trkpt><trkpt lat="36.9816521" lon="15.1122743"><ele>388.0</ele><time>2026-03-28T08:38:31.51Z</time></trkpt><trkpt lat="36.9816173" lon="15.1121218"><ele>388.0</ele><time>2026-03-28T08:38:32.509Z</time></trkpt><trkpt lat="36.9815867" lon="15.1119831"><ele>388.0</ele><time>2026-03-28T08:38:33.512Z</time></trkpt><trkpt lat="36.9815617" lon="15.1118516"><ele>388.0</ele><time>2026-03-28T08:38:34.512Z</time></trkpt><trkpt lat="36.9815571" lon="15.1116997"><ele>388.25</ele><time>2026-03-28T08:38:35.51Z</time></trkpt><trkpt lat="36.9815616" lon="15.1115417"><ele>388.5</ele><time>2026-03-28T08:38:36.51Z</time></trkpt><trkpt lat="36.9815906" lon="15.1113779"><ele>388.75</ele><time>2026-03-28T08:38:37.512Z</time></trkpt><trkpt lat="36.9816363" lon="15.1112089"><ele>389.0</ele><time>2026-03-28T08:38:38.511Z</time></trkpt><trkpt lat="36.9816776" lon="15.111031"><ele>389.0</ele><time>2026-03-28T08:38:39.512Z</time></trkpt><trkpt lat="36.9817011" lon="15.1108433"><ele>389.0</ele><time>2026-03-28T08:38:40.51Z</time></trkpt><trkpt lat="36.981719" lon="15.1106456"><ele>389.0</ele><time>2026-03-28T08:38:41.511Z</time></trkpt><trkpt lat="36.9817267" lon="15.1104398"><ele>389.0</ele><time>2026-03-28T08:38:42.511Z</time></trkpt><trkpt lat="36.9817194" lon="15.1102457"><ele>389.0</ele><time>2026-03-28T08:38:43.509Z</time></trkpt><trkpt lat="36.9817064" lon="15.1100591"><ele>389.0</ele><time>2026-03-28T08:38:44.511Z</time></trkpt><trkpt lat="36.9816882" lon="15.1098708"><ele>390.0</ele><time>2026-03-28T08:38:45.509Z</time></trkpt><trkpt lat="36.9816754" lon="15.1096768"><ele>391.0</ele><time>2026-03-28T08:38:46.511Z</time></trkpt><trkpt lat="36.9816714" lon="15.1094749"><ele>392.0</ele><time>2026-03-28T08:38:47.511Z</time></trkpt><trkpt lat="36.9816725" lon="15.1092632"><ele>392.3333333333333</ele><time>2026-03-28T08:38:48.512Z</time></trkpt><trkpt lat="36.9816743" lon="15.1090493"><ele>392.66666666666663</ele><time>2026-03-28T08:38:49.51Z</time></trkpt><trkpt lat="36.9816731" lon="15.1088506"><ele>393.0</ele><time>2026-03-28T08:38:50.509Z</time></trkpt><trkpt lat="36.9816679" lon="15.1086548"><ele>393.0</ele><time>2026-03-28T08:38:51.51Z</time></trkpt><trkpt lat="36.981652" lon="15.1084557"><ele>393.0</ele><time>2026-03-28T08:38:52.51Z</time></trkpt><trkpt lat="36.9816313" lon="15.1082791"><ele>393.0</ele><time>2026-03-28T08:38:53.509Z</time></trkpt><trkpt lat="36.9816085" lon="15.1081041"><ele>393.0</ele><time>2026-03-28T08:38:54.509Z</time></trkpt><trkpt lat="36.9816206" lon="15.1079229"><ele>393.66666666666663</ele><time>2026-03-28T08:38:55.511Z</time></trkpt><trkpt lat="36.9816291" lon="15.1077376"><ele>394.3333333333333</ele><time>2026-03-28T08:38:56.511Z</time></trkpt><trkpt lat="36.9816174" lon="15.1075456"><ele>395.0</ele><time>2026-03-28T08:38:57.511Z</time></trkpt><trkpt lat="36.9816023" lon="15.107355"><ele>396.66666666666663</ele><time>2026-03-28T08:38:58.51Z</time></trkpt><trkpt lat="36.981608" lon="15.1071479"><ele>398.33333333333337</ele><time>2026-03-28T08:38:59.51Z</time></trkpt><trkpt lat="36.981623" lon="15.1069352"><ele>400.0</ele><time>2026-03-28T08:39:00.51Z</time></trkpt><trkpt lat="36.9816416" lon="15.1067204"><ele>400.0</ele><time>2026-03-28T08:39:01.511Z</time></trkpt><trkpt lat="36.9816631" lon="15.1065084"><ele>400.0</ele><time>2026-03-28T08:39:02.51Z</time></trkpt><trkpt lat="36.9816843" lon="15.106298"><ele>400.0</ele><time>2026-03-28T08:39:03.511Z</time></trkpt><trkpt lat="36.9817038" lon="15.1061116"><ele>400.25</ele><time>2026-03-28T08:39:04.511Z</time></trkpt><trkpt lat="36.9817175" lon="15.1059523"><ele>400.5</ele><time>2026-03-28T08:39:05.509Z</time></trkpt><trkpt lat="36.9817216" lon="15.1057977"><ele>400.75</ele><time>2026-03-28T08:39:06.51Z</time></trkpt><trkpt lat="36.9816954" lon="15.1056279"><ele>401.0</ele><time>2026-03-28T08:39:07.51Z</time></trkpt><trkpt lat="36.9816563" lon="15.1054482"><ele>401.0</ele><time>2026-03-28T08:39:08.51Z</time></trkpt><trkpt lat="36.981605" lon="15.1052579"><ele>401.0</ele><time>2026-03-28T08:39:09.511Z</time></trkpt><trkpt lat="36.9815569" lon="15.1050569"><ele>401.0</ele><time>2026-03-28T08:39:10.51Z</time></trkpt><trkpt lat="36.9814998" lon="15.1048443"><ele>401.3333333333333</ele><time>2026-03-28T08:39:11.512Z</time></trkpt><trkpt lat="36.9814418" lon="15.1046304"><ele>401.66666666666663</ele><time>2026-03-28T08:39:12.511Z</time></trkpt><trkpt lat="36.9813858" lon="15.10443"><ele>402.0</ele><time>2026-03-28T08:39:13.511Z</time></trkpt><trkpt lat="36.9813307" lon="15.1042291"><ele>401.5</ele><time>2026-03-28T08:39:14.511Z</time></trkpt><trkpt lat="36.9812835" lon="15.1040396"><ele>401.0</ele><time>2026-03-28T08:39:15.511Z</time></trkpt><trkpt lat="36.9812354" lon="15.1038656"><ele>400.5</ele><time>2026-03-28T08:39:16.511Z</time></trkpt><trkpt lat="36.9811899" lon="15.1037013"><ele>400.0</ele><time>2026-03-28T08:39:17.51Z</time></trkpt><trkpt lat="36.9811495" lon="15.1035604"><ele>400.0</ele><time>2026-03-28T08:39:18.511Z</time></trkpt><trkpt lat="36.9811109" lon="15.1034242"><ele>400.0</ele><time>2026-03-28T08:39:19.51Z</time></trkpt><trkpt lat="36.9810846" lon="15.1032886"><ele>400.0</ele><time>2026-03-28T08:39:20.51Z</time></trkpt><trkpt lat="36.9810776" lon="15.1031319"><ele>400.0</ele><time>2026-03-28T08:39:21.512Z</time></trkpt><trkpt lat="36.9810884" lon="15.1029519"><ele>399.25</ele><time>2026-03-28T08:39:22.51Z</time></trkpt><trkpt lat="36.9811155" lon="15.1027673"><ele>398.5</ele><time>2026-03-28T08:39:23.511Z</time></trkpt><trkpt lat="36.9811444" lon="15.1025993"><ele>397.75</ele><time>2026-03-28T08:39:24.512Z</time></trkpt><trkpt lat="36.9811714" lon="15.1024422"><ele>397.0</ele><time>2026-03-28T08:39:25.51Z</time></trkpt><trkpt lat="36.9811974" lon="15.1022985"><ele>396.0</ele><time>2026-03-28T08:39:26.511Z</time></trkpt><trkpt lat="36.9812144" lon="15.1021411"><ele>395.0</ele><time>2026-03-28T08:39:27.511Z</time></trkpt><trkpt lat="36.9812254" lon="15.1019592"><ele>394.0</ele><time>2026-03-28T08:39:28.512Z</time></trkpt><trkpt lat="36.9812386" lon="15.101765"><ele>393.0</ele><time>2026-03-28T08:39:29.51Z</time></trkpt><trkpt lat="36.981247" lon="15.1015631"><ele>392.33333333333337</ele><time>2026-03-28T08:39:30.51Z</time></trkpt><trkpt lat="36.9812564" lon="15.1013606"><ele>391.6666666666667</ele><time>2026-03-28T08:39:31.51Z</time></trkpt><trkpt lat="36.9812679" lon="15.1011682"><ele>391.0</ele><time>2026-03-28T08:39:32.511Z</time></trkpt><trkpt lat="36.9812756" lon="15.1009866"><ele>391.0</ele><time>2026-03-28T08:39:33.51Z</time></trkpt><trkpt lat="36.9812882" lon="15.1008185"><ele>391.0</ele><time>2026-03-28T08:39:34.511Z</time></trkpt><trkpt lat="36.9812947" lon="15.1006662"><ele>391.0</ele><time>2026-03-28T08:39:35.511Z</time></trkpt><trkpt lat="36.9812708" lon="15.1005606"><ele>391.0</ele><time>2026-03-28T08:39:36.509Z</time></trkpt><trkpt lat="36.9812177" lon="15.1004814"><ele>391.0</ele><time>2026-03-28T08:39:37.51Z</time></trkpt><trkpt lat="36.9811467" lon="15.1004265"><ele>391.6</ele><time>2026-03-28T08:39:38.51Z</time></trkpt><trkpt lat="36.9810456" lon="15.1003969"><ele>392.20000000000005</ele><time>2026-03-28T08:39:39.509Z</time></trkpt><trkpt lat="36.9809458" lon="15.1003699"><ele>392.79999999999995</ele><time>2026-03-28T08:39:40.51Z</time></trkpt><trkpt lat="36.9808497" lon="15.1003268"><ele>393.4</ele><time>2026-03-28T08:39:41.511Z</time></trkpt><trkpt lat="36.9807761" lon="15.1002707"><ele>394.0</ele><time>2026-03-28T08:39:42.512Z</time></trkpt><trkpt lat="36.9807894" lon="15.1001199"><ele>394.0</ele><time>2026-03-28T08:39:44.509Z</time></trkpt><trkpt lat="36.9808359" lon="15.1000248"><ele>394.0</ele><time>2026-03-28T08:39:45.511Z</time></trkpt><trkpt lat="36.9808878" lon="15.0999178"><ele>394.0</ele><time>2026-03-28T08:39:46.511Z</time></trkpt><trkpt lat="36.9809364" lon="15.0997813"><ele>394.0</ele><time>2026-03-28T08:39:47.51Z</time></trkpt><trkpt lat="36.980992" lon="15.09963"><ele>394.0</ele><time>2026-03-28T08:39:48.511Z</time></trkpt><trkpt lat="36.9810471" lon="15.0994739"><ele>395.0</ele><time>2026-03-28T08:39:49.509Z</time></trkpt><trkpt lat="36.9810969" lon="15.0993087"><ele>396.0</ele><time>2026-03-28T08:39:50.511Z</time></trkpt><trkpt lat="36.9811507" lon="15.0991637"><ele>397.0</ele><time>2026-03-28T08:39:51.511Z</time></trkpt><trkpt lat="36.981189" lon="15.099038"><ele>398.0</ele><time>2026-03-28T08:39:52.51Z</time></trkpt><trkpt lat="36.9812199" lon="15.0988772"><ele>399.25</ele><time>2026-03-28T08:39:53.509Z</time></trkpt><trkpt lat="36.9812446" lon="15.0987162"><ele>400.5</ele><time>2026-03-28T08:39:54.51Z</time></trkpt><trkpt lat="36.9812635" lon="15.098575"><ele>401.75</ele><time>2026-03-28T08:39:55.51Z</time></trkpt><trkpt lat="36.9812857" lon="15.0984399"><ele>403.0</ele><time>2026-03-28T08:39:56.511Z</time></trkpt><trkpt lat="36.9813284" lon="15.0982941"><ele>403.75</ele><time>2026-03-28T08:39:57.509Z</time></trkpt><trkpt lat="36.9813758" lon="15.0981519"><ele>404.5</ele><time>2026-03-28T08:39:58.51Z</time></trkpt><trkpt lat="36.9814276" lon="15.0980103"><ele>405.25</ele><time>2026-03-28T08:39:59.51Z</time></trkpt><trkpt lat="36.9814834" lon="15.0978598"><ele>406.0</ele><time>2026-03-28T08:40:00.511Z</time></trkpt><trkpt lat="36.9815317" lon="15.0976982"><ele>406.0</ele><time>2026-03-28T08:40:01.51Z</time></trkpt><trkpt lat="36.9815854" lon="15.0975313"><ele>406.0</ele><time>2026-03-28T08:40:02.51Z</time></trkpt><trkpt lat="36.9816451" lon="15.0973523"><ele>406.0</ele><time>2026-03-28T08:40:03.51Z</time></trkpt><trkpt lat="36.9817034" lon="15.0971824"><ele>406.0</ele><time>2026-03-28T08:40:04.51Z</time></trkpt><trkpt lat="36.9817677" lon="15.0970159"><ele>406.33333333333337</ele><time>2026-03-28T08:40:05.511Z</time></trkpt><trkpt lat="36.9818363" lon="15.0968331"><ele>406.66666666666663</ele><time>2026-03-28T08:40:06.51Z</time></trkpt><trkpt lat="36.9819171" lon="15.09667"><ele>407.0</ele><time>2026-03-28T08:40:07.51Z</time></trkpt><trkpt lat="36.9819936" lon="15.0965009"><ele>407.66666666666663</ele><time>2026-03-28T08:40:08.509Z</time></trkpt><trkpt lat="36.9820751" lon="15.0963229"><ele>408.33333333333337</ele><time>2026-03-28T08:40:09.512Z</time></trkpt><trkpt lat="36.9821599" lon="15.096158"><ele>409.0</ele><time>2026-03-28T08:40:10.511Z</time></trkpt><trkpt lat="36.9822479" lon="15.096011"><ele>409.0</ele><time>2026-03-28T08:40:11.509Z</time></trkpt><trkpt lat="36.9823146" lon="15.0958685"><ele>409.0</ele><time>2026-03-28T08:40:12.51Z</time></trkpt><trkpt lat="36.982366" lon="15.0957157"><ele>409.0</ele><time>2026-03-28T08:40:13.51Z</time></trkpt><trkpt lat="36.9824061" lon="15.0955394"><ele>409.0</ele><time>2026-03-28T08:40:14.511Z</time></trkpt><trkpt lat="36.982449" lon="15.095352"><ele>409.0</ele><time>2026-03-28T08:40:15.51Z</time></trkpt><trkpt lat="36.9824998" lon="15.095158"><ele>409.0</ele><time>2026-03-28T08:40:16.509Z</time></trkpt><trkpt lat="36.9825466" lon="15.0949774"><ele>409.0</ele><time>2026-03-28T08:40:17.511Z</time></trkpt><trkpt lat="36.9825897" lon="15.0947922"><ele>409.0</ele><time>2026-03-28T08:40:18.512Z</time></trkpt><trkpt lat="36.9826404" lon="15.0946264"><ele>409.0</ele><time>2026-03-28T08:40:19.51Z</time></trkpt><trkpt lat="36.9827011" lon="15.0944561"><ele>409.0</ele><time>2026-03-28T08:40:20.509Z</time></trkpt><trkpt lat="36.9827833" lon="15.0943026"><ele>409.0</ele><time>2026-03-28T08:40:21.51Z</time></trkpt><trkpt lat="36.9828606" lon="15.0941461"><ele>409.25</ele><time>2026-03-28T08:40:22.511Z</time></trkpt><trkpt lat="36.9829187" lon="15.0939996"><ele>409.5</ele><time>2026-03-28T08:40:23.511Z</time></trkpt><trkpt lat="36.9829784" lon="15.0938575"><ele>409.75</ele><time>2026-03-28T08:40:24.511Z</time></trkpt><trkpt lat="36.9830288" lon="15.0937169"><ele>410.0</ele><time>2026-03-28T08:40:25.51Z</time></trkpt><trkpt lat="36.9830686" lon="15.0935853"><ele>409.99999999999994</ele><time>2026-03-28T08:40:26.51Z</time></trkpt><trkpt lat="36.9831008" lon="15.0934543"><ele>410.0</ele><time>2026-03-28T08:40:27.51Z</time></trkpt><trkpt lat="36.9831283" lon="15.0933325"><ele>410.0</ele><time>2026-03-28T08:40:28.509Z</time></trkpt><trkpt lat="36.9831515" lon="15.0932196"><ele>410.0</ele><time>2026-03-28T08:40:29.51Z</time></trkpt><trkpt lat="36.9831712" lon="15.0931199"><ele>409.99999999999994</ele><time>2026-03-28T08:40:30.51Z</time></trkpt><trkpt lat="36.9831802" lon="15.0930417"><ele>410.0</ele><time>2026-03-28T08:40:31.511Z</time></trkpt><trkpt lat="36.9831997" lon="15.092944"><ele>412.0</ele><time>2026-03-28T08:40:33.51Z</time></trkpt><trkpt lat="36.9832303" lon="15.0928604"><ele>412.0</ele><time>2026-03-28T08:40:36.51Z</time></trkpt></trkseg><trkseg><trkpt lat="36.9840669" lon="15.088335"><ele>416.0</ele><time>2026-03-28T08:44:29.509Z</time></trkpt><trkpt lat="36.9840318" lon="15.0882451"><ele>416.0</ele><time>2026-03-28T08:44:42.51Z</time></trkpt><trkpt lat="36.9839978" lon="15.0881037"><ele>416.0</ele><time>2026-03-28T08:44:44.51Z</time></trkpt><trkpt lat="36.983999" lon="15.0879901"><ele>416.0</ele><time>2026-03-28T08:44:45.51Z</time></trkpt><trkpt lat="36.9840012" lon="15.0878622"><ele>416.0</ele><time>2026-03-28T08:44:46.51Z</time></trkpt><trkpt lat="36.984002" lon="15.0877286"><ele>416.0</ele><time>2026-03-28T08:44:47.508Z</time></trkpt><trkpt lat="36.9840112" lon="15.0875873"><ele>416.0</ele><time>2026-03-28T08:44:48.51Z</time></trkpt><trkpt lat="36.9840267" lon="15.0874393"><ele>416.0</ele><time>2026-03-28T08:44:49.513Z</time></trkpt><trkpt lat="36.9840396" lon="15.0872965"><ele>416.0</ele><time>2026-03-28T08:44:50.51Z</time></trkpt><trkpt lat="36.98404" lon="15.0871478"><ele>415.75</ele><time>2026-03-28T08:44:51.509Z</time></trkpt><trkpt lat="36.9840159" lon="15.0869891"><ele>415.5</ele><time>2026-03-28T08:44:52.509Z</time></trkpt><trkpt lat="36.9839803" lon="15.0868351"><ele>415.25</ele><time>2026-03-28T08:44:53.513Z</time></trkpt><trkpt lat="36.983957" lon="15.0866805"><ele>415.0</ele><time>2026-03-28T08:44:54.51Z</time></trkpt><trkpt lat="36.9839489" lon="15.0865094"><ele>414.6666666666667</ele><time>2026-03-28T08:44:55.51Z</time></trkpt><trkpt lat="36.9839423" lon="15.0863291"><ele>414.33333333333337</ele><time>2026-03-28T08:44:56.511Z</time></trkpt><trkpt lat="36.9839341" lon="15.0861365"><ele>414.0</ele><time>2026-03-28T08:44:57.511Z</time></trkpt><trkpt lat="36.9839199" lon="15.0859403"><ele>414.66666666666663</ele><time>2026-03-28T08:44:58.511Z</time></trkpt><trkpt lat="36.9839189" lon="15.0857258"><ele>415.3333333333333</ele><time>2026-03-28T08:44:59.51Z</time></trkpt><trkpt lat="36.9839174" lon="15.0855201"><ele>416.0</ele><time>2026-03-28T08:45:00.509Z</time></trkpt><trkpt lat="36.983917" lon="15.0853261"><ele>416.0</ele><time>2026-03-28T08:45:01.511Z</time></trkpt><trkpt lat="36.9839203" lon="15.0851471"><ele>416.0</ele><time>2026-03-28T08:45:02.509Z</time></trkpt><trkpt lat="36.9839226" lon="15.0849755"><ele>416.0</ele><time>2026-03-28T08:45:03.51Z</time></trkpt><trkpt lat="36.9839182" lon="15.0848085"><ele>416.0</ele><time>2026-03-28T08:45:04.51Z</time></trkpt><trkpt lat="36.9839333" lon="15.0846503"><ele>416.75</ele><time>2026-03-28T08:45:05.51Z</time></trkpt><trkpt lat="36.9839726" lon="15.0844818"><ele>417.5</ele><time>2026-03-28T08:45:06.509Z</time></trkpt><trkpt lat="36.9840187" lon="15.0843083"><ele>418.25</ele><time>2026-03-28T08:45:07.508Z</time></trkpt><trkpt lat="36.9840707" lon="15.0841279"><ele>419.0</ele><time>2026-03-28T08:45:08.51Z</time></trkpt><trkpt lat="36.9841188" lon="15.0839455"><ele>420.25</ele><time>2026-03-28T08:45:09.509Z</time></trkpt><trkpt lat="36.9841583" lon="15.0837825"><ele>421.5</ele><time>2026-03-28T08:45:10.509Z</time></trkpt><trkpt lat="36.9841797" lon="15.0836296"><ele>422.75</ele><time>2026-03-28T08:45:11.511Z</time></trkpt><trkpt lat="36.984177" lon="15.0834789"><ele>424.0</ele><time>2026-03-28T08:45:12.509Z</time></trkpt><trkpt lat="36.984158" lon="15.0833086"><ele>425.0</ele><time>2026-03-28T08:45:13.509Z</time></trkpt><trkpt lat="36.9841352" lon="15.0831348"><ele>426.0</ele><time>2026-03-28T08:45:14.511Z</time></trkpt><trkpt lat="36.984108" lon="15.0829719"><ele>427.0</ele><time>2026-03-28T08:45:15.51Z</time></trkpt><trkpt lat="36.9840713" lon="15.0828264"><ele>428.0</ele><time>2026-03-28T08:45:16.51Z</time></trkpt><trkpt lat="36.98404" lon="15.0826868"><ele>428.0</ele><time>2026-03-28T08:45:17.508Z</time></trkpt><trkpt lat="36.9840254" lon="15.082543"><ele>428.0</ele><time>2026-03-28T08:45:18.51Z</time></trkpt><trkpt lat="36.9840328" lon="15.0823855"><ele>428.0</ele><time>2026-03-28T08:45:19.51Z</time></trkpt><trkpt lat="36.9840587" lon="15.0822389"><ele>428.0</ele><time>2026-03-28T08:45:20.511Z</time></trkpt><trkpt lat="36.9840991" lon="15.0821039"><ele>428.25</ele><time>2026-03-28T08:45:21.51Z</time></trkpt><trkpt lat="36.9841706" lon="15.0819735"><ele>428.5</ele><time>2026-03-28T08:45:22.508Z</time></trkpt><trkpt lat="36.9842616" lon="15.081836"><ele>428.75</ele><time>2026-03-28T08:45:23.51Z</time></trkpt><trkpt lat="36.9843524" lon="15.0816809"><ele>429.0</ele><time>2026-03-28T08:45:24.509Z</time></trkpt><trkpt lat="36.9844394" lon="15.0815158"><ele>430.33333333333337</ele><time>2026-03-28T08:45:25.51Z</time></trkpt><trkpt lat="36.9845227" lon="15.0813652"><ele>431.6666666666667</ele><time>2026-03-28T08:45:26.51Z</time></trkpt><trkpt lat="36.9846176" lon="15.0812148"><ele>433.0</ele><time>2026-03-28T08:45:27.509Z</time></trkpt><trkpt lat="36.9847081" lon="15.0810499"><ele>433.0</ele><time>2026-03-28T08:45:28.51Z</time></trkpt><trkpt lat="36.9847971" lon="15.0808806"><ele>433.0</ele><time>2026-03-28T08:45:29.509Z</time></trkpt><trkpt lat="36.9848826" lon="15.0807073"><ele>433.0</ele><time>2026-03-28T08:45:30.511Z</time></trkpt><trkpt lat="36.9849714" lon="15.0805377"><ele>433.0</ele><time>2026-03-28T08:45:31.51Z</time></trkpt><trkpt lat="36.9850745" lon="15.0803719"><ele>433.0</ele><time>2026-03-28T08:45:32.509Z</time></trkpt><trkpt lat="36.9851834" lon="15.0802118"><ele>433.0</ele><time>2026-03-28T08:45:33.51Z</time></trkpt><trkpt lat="36.9852891" lon="15.0800598"><ele>434.0</ele><time>2026-03-28T08:45:34.509Z</time></trkpt><trkpt lat="36.9853797" lon="15.0799143"><ele>435.0</ele><time>2026-03-28T08:45:35.509Z</time></trkpt><trkpt lat="36.9854577" lon="15.0797686"><ele>436.0</ele><time>2026-03-28T08:45:36.509Z</time></trkpt><trkpt lat="36.9855214" lon="15.0796043"><ele>437.0</ele><time>2026-03-28T08:45:37.509Z</time></trkpt><trkpt lat="36.9855706" lon="15.0794258"><ele>437.0</ele><time>2026-03-28T08:45:38.51Z</time></trkpt><trkpt lat="36.9856171" lon="15.079259"><ele>437.0</ele><time>2026-03-28T08:45:39.51Z</time></trkpt><trkpt lat="36.9856662" lon="15.0790992"><ele>437.0</ele><time>2026-03-28T08:45:40.51Z</time></trkpt><trkpt lat="36.9857336" lon="15.0789485"><ele>437.0</ele><time>2026-03-28T08:45:41.51Z</time></trkpt><trkpt lat="36.9858184" lon="15.0787882"><ele>436.0</ele><time>2026-03-28T08:45:42.51Z</time></trkpt><trkpt lat="36.9859115" lon="15.0786311"><ele>435.0</ele><time>2026-03-28T08:45:43.508Z</time></trkpt><trkpt lat="36.986006" lon="15.0784738"><ele>434.0</ele><time>2026-03-28T08:45:44.509Z</time></trkpt><trkpt lat="36.9860855" lon="15.0782973"><ele>436.0</ele><time>2026-03-28T08:45:45.509Z</time></trkpt><trkpt lat="36.9861535" lon="15.0781016"><ele>438.0</ele><time>2026-03-28T08:45:46.509Z</time></trkpt><trkpt lat="36.98621" lon="15.0779107"><ele>440.0</ele><time>2026-03-28T08:45:47.511Z</time></trkpt><trkpt lat="36.9862479" lon="15.0777148"><ele>440.0</ele><time>2026-03-28T08:45:48.51Z</time></trkpt><trkpt lat="36.9862682" lon="15.0775339"><ele>440.0</ele><time>2026-03-28T08:45:49.51Z</time></trkpt><trkpt lat="36.9862951" lon="15.0773657"><ele>440.0</ele><time>2026-03-28T08:45:50.511Z</time></trkpt><trkpt lat="36.9863311" lon="15.077223"><ele>440.0</ele><time>2026-03-28T08:45:51.51Z</time></trkpt><trkpt lat="36.9863975" lon="15.0770873"><ele>440.3333333333333</ele><time>2026-03-28T08:45:52.51Z</time></trkpt><trkpt lat="36.9864768" lon="15.076943"><ele>440.66666666666663</ele><time>2026-03-28T08:45:53.509Z</time></trkpt><trkpt lat="36.9865699" lon="15.076786"><ele>441.0</ele><time>2026-03-28T08:45:54.509Z</time></trkpt><trkpt lat="36.9866653" lon="15.0766152"><ele>441.25</ele><time>2026-03-28T08:45:55.509Z</time></trkpt><trkpt lat="36.9867568" lon="15.0764648"><ele>441.5</ele><time>2026-03-28T08:45:56.51Z</time></trkpt><trkpt lat="36.986844" lon="15.0763239"><ele>441.75</ele><time>2026-03-28T08:45:57.51Z</time></trkpt><trkpt lat="36.9869374" lon="15.0761938"><ele>442.0</ele><time>2026-03-28T08:45:58.509Z</time></trkpt><trkpt lat="36.9870376" lon="15.0760702"><ele>442.0</ele><time>2026-03-28T08:45:59.51Z</time></trkpt><trkpt lat="36.9871472" lon="15.0759523"><ele>442.0</ele><time>2026-03-28T08:46:00.51Z</time></trkpt><trkpt lat="36.9872539" lon="15.075845"><ele>442.0</ele><time>2026-03-28T08:46:01.51Z</time></trkpt><trkpt lat="36.9873437" lon="15.075747"><ele>442.0</ele><time>2026-03-28T08:46:02.51Z</time></trkpt><trkpt lat="36.9874203" lon="15.0756322"><ele>442.75</ele><time>2026-03-28T08:46:03.509Z</time></trkpt><trkpt lat="36.9874831" lon="15.0754913"><ele>443.5</ele><time>2026-03-28T08:46:04.51Z</time></trkpt><trkpt lat="36.98754" lon="15.075328"><ele>444.25</ele><time>2026-03-28T08:46:05.51Z</time></trkpt><trkpt lat="36.9875983" lon="15.0751508"><ele>445.0</ele><time>2026-03-28T08:46:06.51Z</time></trkpt><trkpt lat="36.987662" lon="15.0749665"><ele>445.5</ele><time>2026-03-28T08:46:07.509Z</time></trkpt><trkpt lat="36.9877185" lon="15.0747952"><ele>446.0</ele><time>2026-03-28T08:46:08.509Z</time></trkpt><trkpt lat="36.9877716" lon="15.0746373"><ele>446.5</ele><time>2026-03-28T08:46:09.509Z</time></trkpt><trkpt lat="36.987833" lon="15.0745009"><ele>447.0</ele><time>2026-03-28T08:46:10.509Z</time></trkpt><trkpt lat="36.9878989" lon="15.0743723"><ele>447.0</ele><time>2026-03-28T08:46:11.511Z</time></trkpt><trkpt lat="36.9879768" lon="15.0742517"><ele>447.0</ele><time>2026-03-28T08:46:12.509Z</time></trkpt><trkpt lat="36.9880624" lon="15.0741575"><ele>447.0</ele><time>2026-03-28T08:46:13.511Z</time></trkpt><trkpt lat="36.9881554" lon="15.074095"><ele>447.0</ele><time>2026-03-28T08:46:14.51Z</time></trkpt><trkpt lat="36.9882692" lon="15.0740746"><ele>446.5</ele><time>2026-03-28T08:46:15.509Z</time></trkpt><trkpt lat="36.9883998" lon="15.074088"><ele>446.0</ele><time>2026-03-28T08:46:16.509Z</time></trkpt><trkpt lat="36.9885426" lon="15.0741143"><ele>445.5</ele><time>2026-03-28T08:46:17.509Z</time></trkpt><trkpt lat="36.9886994" lon="15.0741534"><ele>445.0</ele><time>2026-03-28T08:46:18.51Z</time></trkpt><trkpt lat="36.9888638" lon="15.0742057"><ele>445.0</ele><time>2026-03-28T08:46:19.509Z</time></trkpt><trkpt lat="36.9890229" lon="15.0742521"><ele>445.0</ele><time>2026-03-28T08:46:20.509Z</time></trkpt><trkpt lat="36.9891696" lon="15.0742984"><ele>445.0</ele><time>2026-03-28T08:46:21.511Z</time></trkpt><trkpt lat="36.9893101" lon="15.0743379"><ele>445.0</ele><time>2026-03-28T08:46:22.509Z</time></trkpt><trkpt lat="36.9894279" lon="15.0743771"><ele>445.0</ele><time>2026-03-28T08:46:23.51Z</time></trkpt><trkpt lat="36.9895233" lon="15.074411"><ele>445.0</ele><time>2026-03-28T08:46:24.509Z</time></trkpt><trkpt lat="36.9895928" lon="15.0744199"><ele>445.0</ele><time>2026-03-28T08:46:25.51Z</time></trkpt><trkpt lat="36.9896539" lon="15.0744001"><ele>445.0</ele><time>2026-03-28T08:46:26.509Z</time></trkpt><trkpt lat="36.9897452" lon="15.0742364"><ele>445.0</ele><time>2026-03-28T08:46:28.509Z</time></trkpt><trkpt lat="36.9897946" lon="15.0741257"><ele>445.0</ele><time>2026-03-28T08:46:29.508Z</time></trkpt><trkpt lat="36.9898478" lon="15.0740015"><ele>445.0</ele><time>2026-03-28T08:46:30.509Z</time></trkpt><trkpt lat="36.9899134" lon="15.0738655"><ele>445.0</ele><time>2026-03-28T08:46:31.509Z</time></trkpt><trkpt lat="36.9899858" lon="15.073712"><ele>445.25</ele><time>2026-03-28T08:46:32.509Z</time></trkpt><trkpt lat="36.9900591" lon="15.0735532"><ele>445.5</ele><time>2026-03-28T08:46:33.51Z</time></trkpt><trkpt lat="36.9901317" lon="15.0733953"><ele>445.75</ele><time>2026-03-28T08:46:34.509Z</time></trkpt><trkpt lat="36.9902134" lon="15.0732334"><ele>446.0</ele><time>2026-03-28T08:46:35.509Z</time></trkpt><trkpt lat="36.9903038" lon="15.0730638"><ele>447.0</ele><time>2026-03-28T08:46:36.509Z</time></trkpt><trkpt lat="36.9903984" lon="15.0728934"><ele>448.0</ele><time>2026-03-28T08:46:37.509Z</time></trkpt><trkpt lat="36.9904973" lon="15.0727127"><ele>449.0</ele><time>2026-03-28T08:46:38.511Z</time></trkpt><trkpt lat="36.990602" lon="15.0725334"><ele>448.66666666666663</ele><time>2026-03-28T08:46:39.511Z</time></trkpt><trkpt lat="36.9907092" lon="15.0723613"><ele>448.33333333333337</ele><time>2026-03-28T08:46:40.508Z</time></trkpt><trkpt lat="36.9908188" lon="15.0721859"><ele>448.0</ele><time>2026-03-28T08:46:41.509Z</time></trkpt><trkpt lat="36.9909299" lon="15.0720054"><ele>449.0</ele><time>2026-03-28T08:46:42.509Z</time></trkpt><trkpt lat="36.9910458" lon="15.0718168"><ele>450.0</ele><time>2026-03-28T08:46:43.511Z</time></trkpt><trkpt lat="36.9911654" lon="15.0716228"><ele>451.0</ele><time>2026-03-28T08:46:44.51Z</time></trkpt><trkpt lat="36.9912856" lon="15.0714241"><ele>451.6666666666667</ele><time>2026-03-28T08:46:45.509Z</time></trkpt><trkpt lat="36.9914105" lon="15.0712226"><ele>452.33333333333337</ele><time>2026-03-28T08:46:46.509Z</time></trkpt><trkpt lat="36.9915361" lon="15.07102"><ele>453.0</ele><time>2026-03-28T08:46:47.509Z</time></trkpt><trkpt lat="36.9916589" lon="15.0708269"><ele>453.33333333333337</ele><time>2026-03-28T08:46:48.508Z</time></trkpt><trkpt lat="36.9917739" lon="15.070638"><ele>453.6666666666667</ele><time>2026-03-28T08:46:49.51Z</time></trkpt><trkpt lat="36.9918928" lon="15.0704468"><ele>454.0</ele><time>2026-03-28T08:46:50.509Z</time></trkpt><trkpt lat="36.9920078" lon="15.0702532"><ele>454.0</ele><time>2026-03-28T08:46:51.509Z</time></trkpt><trkpt lat="36.9921166" lon="15.0700752"><ele>454.0</ele><time>2026-03-28T08:46:52.51Z</time></trkpt><trkpt lat="36.9922267" lon="15.0698951"><ele>454.0</ele><time>2026-03-28T08:46:53.51Z</time></trkpt><trkpt lat="36.9923246" lon="15.0697267"><ele>454.6666666666667</ele><time>2026-03-28T08:46:54.509Z</time></trkpt><trkpt lat="36.9924263" lon="15.069561"><ele>455.33333333333337</ele><time>2026-03-28T08:46:55.509Z</time></trkpt><trkpt lat="36.9925401" lon="15.0694074"><ele>456.0</ele><time>2026-03-28T08:46:56.51Z</time></trkpt><trkpt lat="36.992671" lon="15.0692681"><ele>456.0</ele><time>2026-03-28T08:46:57.511Z</time></trkpt><trkpt lat="36.9928157" lon="15.069154"><ele>456.0</ele><time>2026-03-28T08:46:58.509Z</time></trkpt><trkpt lat="36.9929589" lon="15.0690517"><ele>456.0</ele><time>2026-03-28T08:46:59.51Z</time></trkpt><trkpt lat="36.9930661" lon="15.0689539"><ele>456.0</ele><time>2026-03-28T08:47:00.509Z</time></trkpt><trkpt lat="36.9931727" lon="15.0688318"><ele>456.0</ele><time>2026-03-28T08:47:01.508Z</time></trkpt><trkpt lat="36.9932726" lon="15.0686801"><ele>456.0</ele><time>2026-03-28T08:47:02.509Z</time></trkpt><trkpt lat="36.9933744" lon="15.0685166"><ele>456.0</ele><time>2026-03-28T08:47:03.51Z</time></trkpt><trkpt lat="36.9934672" lon="15.068351"><ele>456.0</ele><time>2026-03-28T08:47:04.51Z</time></trkpt><trkpt lat="36.9935503" lon="15.0681857"><ele>456.0</ele><time>2026-03-28T08:47:05.51Z</time></trkpt><trkpt lat="36.99362" lon="15.0680014"><ele>456.0</ele><time>2026-03-28T08:47:06.509Z</time></trkpt><trkpt lat="36.9936663" lon="15.0678106"><ele>456.0</ele><time>2026-03-28T08:47:07.509Z</time></trkpt><trkpt lat="36.9937145" lon="15.0676323"><ele>456.0</ele><time>2026-03-28T08:47:08.51Z</time></trkpt><trkpt lat="36.9937767" lon="15.0674615"><ele>456.66666666666663</ele><time>2026-03-28T08:47:09.51Z</time></trkpt><trkpt lat="36.993863" lon="15.0672984"><ele>457.3333333333333</ele><time>2026-03-28T08:47:10.508Z</time></trkpt><trkpt lat="36.9939469" lon="15.0671519"><ele>458.0</ele><time>2026-03-28T08:47:11.509Z</time></trkpt><trkpt lat="36.9940468" lon="15.0670129"><ele>457.0</ele><time>2026-03-28T08:47:12.508Z</time></trkpt><trkpt lat="36.9941721" lon="15.0668835"><ele>456.0</ele><time>2026-03-28T08:47:13.51Z</time></trkpt><trkpt lat="36.994309" lon="15.0667561"><ele>455.0</ele><time>2026-03-28T08:47:14.509Z</time></trkpt><trkpt lat="36.9944468" lon="15.0666408"><ele>456.0</ele><time>2026-03-28T08:47:15.51Z</time></trkpt><trkpt lat="36.9945771" lon="15.0665313"><ele>457.0</ele><time>2026-03-28T08:47:16.51Z</time></trkpt><trkpt lat="36.9947112" lon="15.066432"><ele>458.0</ele><time>2026-03-28T08:47:17.509Z</time></trkpt><trkpt lat="36.9948423" lon="15.0663185"><ele>458.0</ele><time>2026-03-28T08:47:18.508Z</time></trkpt><trkpt lat="36.9949762" lon="15.0661942"><ele>458.0</ele><time>2026-03-28T08:47:19.509Z</time></trkpt><trkpt lat="36.9951001" lon="15.0660542"><ele>458.0</ele><time>2026-03-28T08:47:20.509Z</time></trkpt><trkpt lat="36.9952083" lon="15.0658934"><ele>458.3333333333333</ele><time>2026-03-28T08:47:21.51Z</time></trkpt><trkpt lat="36.9952977" lon="15.0657158"><ele>458.66666666666663</ele><time>2026-03-28T08:47:22.51Z</time></trkpt><trkpt lat="36.9953814" lon="15.0655276"><ele>459.0</ele><time>2026-03-28T08:47:23.509Z</time></trkpt><trkpt lat="36.995471" lon="15.065332"><ele>459.0</ele><time>2026-03-28T08:47:24.508Z</time></trkpt><trkpt lat="36.9955604" lon="15.0651428"><ele>459.0</ele><time>2026-03-28T08:47:25.51Z</time></trkpt><trkpt lat="36.995661" lon="15.0649499"><ele>459.0</ele><time>2026-03-28T08:47:26.51Z</time></trkpt><trkpt lat="36.9957628" lon="15.0647553"><ele>459.0</ele><time>2026-03-28T08:47:27.51Z</time></trkpt><trkpt lat="36.9958736" lon="15.0645526"><ele>459.0</ele><time>2026-03-28T08:47:28.51Z</time></trkpt><trkpt lat="36.995985" lon="15.0643546"><ele>459.0</ele><time>2026-03-28T08:47:29.508Z</time></trkpt><trkpt lat="36.9961018" lon="15.0641455"><ele>460.0</ele><time>2026-03-28T08:47:30.51Z</time></trkpt><trkpt lat="36.9962192" lon="15.0639247"><ele>461.0</ele><time>2026-03-28T08:47:31.509Z</time></trkpt><trkpt lat="36.996335" lon="15.0637078"><ele>462.0</ele><time>2026-03-28T08:47:32.509Z</time></trkpt><trkpt lat="36.9964573" lon="15.0634923"><ele>462.0</ele><time>2026-03-28T08:47:33.509Z</time></trkpt><trkpt lat="36.9965699" lon="15.0632924"><ele>462.0</ele><time>2026-03-28T08:47:34.51Z</time></trkpt><trkpt lat="36.9966887" lon="15.0630956"><ele>462.0</ele><time>2026-03-28T08:47:35.508Z</time></trkpt><trkpt lat="36.9968112" lon="15.0629029"><ele>463.33333333333337</ele><time>2026-03-28T08:47:36.509Z</time></trkpt><trkpt lat="36.9969207" lon="15.0627281"><ele>464.6666666666667</ele><time>2026-03-28T08:47:37.509Z</time></trkpt><trkpt lat="36.9970279" lon="15.0625634"><ele>466.0</ele><time>2026-03-28T08:47:38.509Z</time></trkpt><trkpt lat="36.9971254" lon="15.0624132"><ele>468.33333333333337</ele><time>2026-03-28T08:47:39.509Z</time></trkpt><trkpt lat="36.997216" lon="15.0622575"><ele>470.66666666666663</ele><time>2026-03-28T08:47:40.51Z</time></trkpt><trkpt lat="36.9972968" lon="15.0620942"><ele>473.0</ele><time>2026-03-28T08:47:41.508Z</time></trkpt><trkpt lat="36.9973573" lon="15.0619285"><ele>473.0</ele><time>2026-03-28T08:47:42.509Z</time></trkpt><trkpt lat="36.9974035" lon="15.0617723"><ele>472.99999999999994</ele><time>2026-03-28T08:47:43.51Z</time></trkpt><trkpt lat="36.9974406" lon="15.0616488"><ele>472.99999999999994</ele><time>2026-03-28T08:47:44.51Z</time></trkpt><trkpt lat="36.9974809" lon="15.0615589"><ele>473.0</ele><time>2026-03-28T08:47:45.51Z</time></trkpt><trkpt lat="36.9975407" lon="15.0614961"><ele>473.0</ele><time>2026-03-28T08:47:46.51Z</time></trkpt><trkpt lat="36.9976138" lon="15.0614559"><ele>473.0</ele><time>2026-03-28T08:47:47.508Z</time></trkpt><trkpt lat="36.9977478" lon="15.0614623"><ele>473.0</ele><time>2026-03-28T08:47:48.51Z</time></trkpt><trkpt lat="36.9978781" lon="15.0614666"><ele>473.0</ele><time>2026-03-28T08:47:49.509Z</time></trkpt><trkpt lat="36.9980365" lon="15.0614603"><ele>473.0</ele><time>2026-03-28T08:47:50.51Z</time></trkpt><trkpt lat="36.99818" lon="15.0614663"><ele>473.0</ele><time>2026-03-28T08:47:51.509Z</time></trkpt><trkpt lat="36.9983139" lon="15.0614651"><ele>473.0</ele><time>2026-03-28T08:47:52.51Z</time></trkpt><trkpt lat="36.9984393" lon="15.0614708"><ele>473.0</ele><time>2026-03-28T08:47:53.508Z</time></trkpt><trkpt lat="36.9985581" lon="15.0614982"><ele>473.0</ele><time>2026-03-28T08:47:54.509Z</time></trkpt><trkpt lat="36.9986724" lon="15.0615642"><ele>473.2</ele><time>2026-03-28T08:47:55.511Z</time></trkpt><trkpt lat="36.9987744" lon="15.0616361"><ele>473.4</ele><time>2026-03-28T08:47:56.51Z</time></trkpt><trkpt lat="36.998872" lon="15.0617003"><ele>473.59999999999997</ele><time>2026-03-28T08:47:57.51Z</time></trkpt><trkpt lat="36.9989566" lon="15.0616988"><ele>473.79999999999995</ele><time>2026-03-28T08:47:58.51Z</time></trkpt><trkpt lat="36.9990403" lon="15.0616589"><ele>474.0</ele><time>2026-03-28T08:47:59.509Z</time></trkpt><trkpt lat="36.9991151" lon="15.0615848"><ele>473.0</ele><time>2026-03-28T08:48:00.51Z</time></trkpt><trkpt lat="36.9992104" lon="15.0615125"><ele>472.0</ele><time>2026-03-28T08:48:01.51Z</time></trkpt><trkpt lat="36.9993413" lon="15.0614505"><ele>471.0</ele><time>2026-03-28T08:48:02.509Z</time></trkpt><trkpt lat="36.9994759" lon="15.061404"><ele>470.0</ele><time>2026-03-28T08:48:03.51Z</time></trkpt><trkpt lat="36.9996061" lon="15.0613766"><ele>470.0</ele><time>2026-03-28T08:48:04.51Z</time></trkpt><trkpt lat="36.9997327" lon="15.0613675"><ele>470.0</ele><time>2026-03-28T08:48:05.51Z</time></trkpt><trkpt lat="36.999862" lon="15.0613902"><ele>470.0</ele><time>2026-03-28T08:48:06.51Z</time></trkpt><trkpt lat="36.9999741" lon="15.061419"><ele>470.0</ele><time>2026-03-28T08:48:07.51Z</time></trkpt><trkpt lat="37.0000904" lon="15.0614585"><ele>470.0</ele><time>2026-03-28T08:48:08.509Z</time></trkpt><trkpt lat="37.0001943" lon="15.0615282"><ele>470.0</ele><time>2026-03-28T08:48:09.509Z</time></trkpt><trkpt lat="37.0002812" lon="15.0616144"><ele>470.0</ele><time>2026-03-28T08:48:10.509Z</time></trkpt><trkpt lat="37.0003655" lon="15.0616844"><ele>470.0</ele><time>2026-03-28T08:48:11.511Z</time></trkpt><trkpt lat="37.0004383" lon="15.0617255"><ele>470.0</ele><time>2026-03-28T08:48:12.51Z</time></trkpt><trkpt lat="37.0005248" lon="15.0617342"><ele>469.99999999999994</ele><time>2026-03-28T08:48:14.51Z</time></trkpt><trkpt lat="37.0006001" lon="15.0616624"><ele>470.0</ele><time>2026-03-28T08:48:24.509Z</time></trkpt><trkpt lat="37.0006404" lon="15.0616012"><ele>470.0</ele><time>2026-03-28T08:48:25.51Z</time></trkpt><trkpt lat="37.000675" lon="15.0615291"><ele>470.0</ele><time>2026-03-28T08:48:26.51Z</time></trkpt><trkpt lat="37.0007116" lon="15.0614344"><ele>469.99999999999994</ele><time>2026-03-28T08:48:27.508Z</time></trkpt><trkpt lat="37.0007402" lon="15.0613226"><ele>470.0</ele><time>2026-03-28T08:48:28.51Z</time></trkpt><trkpt lat="37.000767" lon="15.0612042"><ele>470.0</ele><time>2026-03-28T08:48:29.509Z</time></trkpt><trkpt lat="37.0007883" lon="15.0610705"><ele>470.0</ele><time>2026-03-28T08:48:30.509Z</time></trkpt><trkpt lat="37.0008144" lon="15.0609343"><ele>470.0</ele><time>2026-03-28T08:48:31.509Z</time></trkpt><trkpt lat="37.0008484" lon="15.0607879"><ele>470.0</ele><time>2026-03-28T08:48:32.51Z</time></trkpt><trkpt lat="37.0008803" lon="15.0606433"><ele>470.0</ele><time>2026-03-28T08:48:33.509Z</time></trkpt><trkpt lat="37.0009137" lon="15.0604909"><ele>470.0</ele><time>2026-03-28T08:48:34.509Z</time></trkpt><trkpt lat="37.0009564" lon="15.0603371"><ele>470.0</ele><time>2026-03-28T08:48:35.509Z</time></trkpt><trkpt lat="37.0010114" lon="15.0601775"><ele>470.0</ele><time>2026-03-28T08:48:36.51Z</time></trkpt><trkpt lat="37.0010736" lon="15.0600307"><ele>470.0</ele><time>2026-03-28T08:48:37.509Z</time></trkpt><trkpt lat="37.0011405" lon="15.0598953"><ele>470.0</ele><time>2026-03-28T08:48:38.509Z</time></trkpt><trkpt lat="37.0012134" lon="15.0597732"><ele>470.0</ele><time>2026-03-28T08:48:39.508Z</time></trkpt><trkpt lat="37.0012969" lon="15.0596614"><ele>470.0</ele><time>2026-03-28T08:48:40.509Z</time></trkpt><trkpt lat="37.0014031" lon="15.059553"><ele>470.0</ele><time>2026-03-28T08:48:41.509Z</time></trkpt><trkpt lat="37.0015219" lon="15.0594524"><ele>470.0</ele><time>2026-03-28T08:48:42.508Z</time></trkpt><trkpt lat="37.0016416" lon="15.0593499"><ele>470.0</ele><time>2026-03-28T08:48:43.509Z</time></trkpt><trkpt lat="37.0017505" lon="15.0592644"><ele>470.0</ele><time>2026-03-28T08:48:44.509Z</time></trkpt><trkpt lat="37.001852" lon="15.0591669"><ele>471.0</ele><time>2026-03-28T08:48:45.509Z</time></trkpt><trkpt lat="37.0019499" lon="15.0590416"><ele>472.0</ele><time>2026-03-28T08:48:46.51Z</time></trkpt><trkpt lat="37.0020469" lon="15.0588998"><ele>473.0</ele><time>2026-03-28T08:48:47.509Z</time></trkpt><trkpt lat="37.0021373" lon="15.0587571"><ele>474.0</ele><time>2026-03-28T08:48:48.508Z</time></trkpt><trkpt lat="37.0022155" lon="15.058623"><ele>474.0</ele><time>2026-03-28T08:48:49.509Z</time></trkpt><trkpt lat="37.0022788" lon="15.0584839"><ele>474.0</ele><time>2026-03-28T08:48:50.51Z</time></trkpt><trkpt lat="37.0023188" lon="15.0583369"><ele>474.0</ele><time>2026-03-28T08:48:51.509Z</time></trkpt><trkpt lat="37.0023417" lon="15.0581801"><ele>474.0</ele><time>2026-03-28T08:48:52.51Z</time></trkpt><trkpt lat="37.0023631" lon="15.0580058"><ele>474.75</ele><time>2026-03-28T08:48:53.509Z</time></trkpt><trkpt lat="37.002379" lon="15.0578304"><ele>475.5</ele><time>2026-03-28T08:48:54.509Z</time></trkpt><trkpt lat="37.002396" lon="15.0576568"><ele>476.25</ele><time>2026-03-28T08:48:55.508Z</time></trkpt><trkpt lat="37.0024135" lon="15.0574936"><ele>477.0</ele><time>2026-03-28T08:48:56.508Z</time></trkpt><trkpt lat="37.0024333" lon="15.0573288"><ele>477.25</ele><time>2026-03-28T08:48:57.51Z</time></trkpt><trkpt lat="37.0024584" lon="15.0571725"><ele>477.5</ele><time>2026-03-28T08:48:58.51Z</time></trkpt><trkpt lat="37.002491" lon="15.0570309"><ele>477.75</ele><time>2026-03-28T08:48:59.508Z</time></trkpt><trkpt lat="37.002545" lon="15.0569024"><ele>478.0</ele><time>2026-03-28T08:49:00.509Z</time></trkpt><trkpt lat="37.0026354" lon="15.0567767"><ele>478.0</ele><time>2026-03-28T08:49:01.508Z</time></trkpt><trkpt lat="37.0027391" lon="15.0566584"><ele>478.0</ele><time>2026-03-28T08:49:02.509Z</time></trkpt><trkpt lat="37.0028602" lon="15.0565321"><ele>478.0</ele><time>2026-03-28T08:49:03.51Z</time></trkpt><trkpt lat="37.0030143" lon="15.0564055"><ele>479.0</ele><time>2026-03-28T08:49:04.509Z</time></trkpt><trkpt lat="37.0031658" lon="15.056276"><ele>480.0</ele><time>2026-03-28T08:49:05.508Z</time></trkpt><trkpt lat="37.0033057" lon="15.0561464"><ele>481.0</ele><time>2026-03-28T08:49:06.509Z</time></trkpt><trkpt lat="37.0034338" lon="15.0560282"><ele>481.0</ele><time>2026-03-28T08:49:07.51Z</time></trkpt><trkpt lat="37.0035562" lon="15.0559179"><ele>481.0</ele><time>2026-03-28T08:49:08.509Z</time></trkpt><trkpt lat="37.0036656" lon="15.0558131"><ele>481.0</ele><time>2026-03-28T08:49:09.51Z</time></trkpt><trkpt lat="37.0037651" lon="15.0557095"><ele>481.0</ele><time>2026-03-28T08:49:10.509Z</time></trkpt><trkpt lat="37.0038495" lon="15.0555906"><ele>481.25</ele><time>2026-03-28T08:49:11.509Z</time></trkpt><trkpt lat="37.0039163" lon="15.0554464"><ele>481.5</ele><time>2026-03-28T08:49:12.508Z</time></trkpt><trkpt lat="37.0039678" lon="15.0552822"><ele>481.75</ele><time>2026-03-28T08:49:13.51Z</time></trkpt><trkpt lat="37.0040113" lon="15.055112"><ele>482.0</ele><time>2026-03-28T08:49:14.508Z</time></trkpt><trkpt lat="37.0040365" lon="15.054941"><ele>482.0</ele><time>2026-03-28T08:49:15.509Z</time></trkpt><trkpt lat="37.0040398" lon="15.0547551"><ele>482.0</ele><time>2026-03-28T08:49:16.51Z</time></trkpt><trkpt lat="37.0040349" lon="15.0545656"><ele>482.0</ele><time>2026-03-28T08:49:17.508Z</time></trkpt><trkpt lat="37.004017" lon="15.0543852"><ele>482.0</ele><time>2026-03-28T08:49:18.509Z</time></trkpt><trkpt lat="37.0040072" lon="15.0542182"><ele>483.25</ele><time>2026-03-28T08:49:19.509Z</time></trkpt><trkpt lat="37.0040224" lon="15.0540552"><ele>484.5</ele><time>2026-03-28T08:49:20.508Z</time></trkpt><trkpt lat="37.0040786" lon="15.053914"><ele>485.75</ele><time>2026-03-28T08:49:21.51Z</time></trkpt><trkpt lat="37.0041737" lon="15.0537741"><ele>487.0</ele><time>2026-03-28T08:49:22.51Z</time></trkpt><trkpt lat="37.0042742" lon="15.053629"><ele>485.5</ele><time>2026-03-28T08:49:23.509Z</time></trkpt><trkpt lat="37.0043718" lon="15.0534882"><ele>484.0</ele><time>2026-03-28T08:49:24.508Z</time></trkpt><trkpt lat="37.0044726" lon="15.0533485"><ele>482.5</ele><time>2026-03-28T08:49:25.509Z</time></trkpt><trkpt lat="37.0045615" lon="15.0532147"><ele>481.0</ele><time>2026-03-28T08:49:26.509Z</time></trkpt><trkpt lat="37.0046456" lon="15.0530973"><ele>481.0</ele><time>2026-03-28T08:49:27.507Z</time></trkpt><trkpt lat="37.0047391" lon="15.0529966"><ele>481.0</ele><time>2026-03-28T08:49:28.509Z</time></trkpt><trkpt lat="37.0048469" lon="15.0529085"><ele>481.0</ele><time>2026-03-28T08:49:29.509Z</time></trkpt><trkpt lat="37.0049676" lon="15.0528401"><ele>481.0</ele><time>2026-03-28T08:49:30.509Z</time></trkpt><trkpt lat="37.0050808" lon="15.052757"><ele>480.5</ele><time>2026-03-28T08:49:31.509Z</time></trkpt><trkpt lat="37.0051775" lon="15.0526527"><ele>480.0</ele><time>2026-03-28T08:49:32.51Z</time></trkpt><trkpt lat="37.0052651" lon="15.0525183"><ele>479.5</ele><time>2026-03-28T08:49:33.51Z</time></trkpt><trkpt lat="37.0053499" lon="15.0523561"><ele>479.0</ele><time>2026-03-28T08:49:34.509Z</time></trkpt><trkpt lat="37.0054301" lon="15.0521975"><ele>479.0</ele><time>2026-03-28T08:49:35.509Z</time></trkpt><trkpt lat="37.0055125" lon="15.052039"><ele>479.0</ele><time>2026-03-28T08:49:36.509Z</time></trkpt><trkpt lat="37.00559" lon="15.051885"><ele>479.0</ele><time>2026-03-28T08:49:37.507Z</time></trkpt><trkpt lat="37.0056663" lon="15.0517427"><ele>479.0</ele><time>2026-03-28T08:49:38.509Z</time></trkpt><trkpt lat="37.0057543" lon="15.051597"><ele>477.3333333333333</ele><time>2026-03-28T08:49:39.509Z</time></trkpt><trkpt lat="37.0058639" lon="15.0514604"><ele>475.66666666666663</ele><time>2026-03-28T08:49:40.508Z</time></trkpt><trkpt lat="37.0059873" lon="15.051316"><ele>474.0</ele><time>2026-03-28T08:49:41.509Z</time></trkpt><trkpt lat="37.0061226" lon="15.0511714"><ele>474.0</ele><time>2026-03-28T08:49:42.51Z</time></trkpt><trkpt lat="37.0062568" lon="15.0510323"><ele>474.0</ele><time>2026-03-28T08:49:43.508Z</time></trkpt><trkpt lat="37.0063947" lon="15.0508834"><ele>474.0</ele><time>2026-03-28T08:49:44.509Z</time></trkpt><trkpt lat="37.0065368" lon="15.0507262"><ele>469.33333333333337</ele><time>2026-03-28T08:49:45.509Z</time></trkpt><trkpt lat="37.0066832" lon="15.0505726"><ele>464.6666666666667</ele><time>2026-03-28T08:49:46.51Z</time></trkpt><trkpt lat="37.0068283" lon="15.0504222"><ele>460.0</ele><time>2026-03-28T08:49:47.509Z</time></trkpt><trkpt lat="37.0069722" lon="15.0502735"><ele>460.0</ele><time>2026-03-28T08:49:48.507Z</time></trkpt><trkpt lat="37.0071149" lon="15.0501304"><ele>460.0</ele><time>2026-03-28T08:49:49.509Z</time></trkpt><trkpt lat="37.0072546" lon="15.0499911"><ele>460.0</ele><time>2026-03-28T08:49:50.508Z</time></trkpt><trkpt lat="37.0073743" lon="15.0498611"><ele>457.0</ele><time>2026-03-28T08:49:51.509Z</time></trkpt><trkpt lat="37.0075023" lon="15.0497325"><ele>454.0</ele><time>2026-03-28T08:49:52.509Z</time></trkpt><trkpt lat="37.0076176" lon="15.0496129"><ele>451.0</ele><time>2026-03-28T08:49:53.509Z</time></trkpt><trkpt lat="37.0077165" lon="15.0495052"><ele>448.0</ele><time>2026-03-28T08:49:54.509Z</time></trkpt><trkpt lat="37.0078003" lon="15.0494125"><ele>448.0</ele><time>2026-03-28T08:49:55.509Z</time></trkpt><trkpt lat="37.0078902" lon="15.0493435"><ele>447.99999999999994</ele><time>2026-03-28T08:49:56.509Z</time></trkpt><trkpt lat="37.0079846" lon="15.0493231"><ele>447.99999999999994</ele><time>2026-03-28T08:49:57.509Z</time></trkpt><trkpt lat="37.0080747" lon="15.0493417"><ele>448.0</ele><time>2026-03-28T08:49:58.509Z</time></trkpt><trkpt lat="37.008153" lon="15.0493875"><ele>448.0</ele><time>2026-03-28T08:49:59.51Z</time></trkpt><trkpt lat="37.0082259" lon="15.0494601"><ele>448.00000000000006</ele><time>2026-03-28T08:50:00.51Z</time></trkpt><trkpt lat="37.0082848" lon="15.0495549"><ele>448.0</ele><time>2026-03-28T08:50:01.509Z</time></trkpt><trkpt lat="37.0083378" lon="15.0496558"><ele>448.0</ele><time>2026-03-28T08:50:02.509Z</time></trkpt><trkpt lat="37.0083755" lon="15.049746"><ele>448.0</ele><time>2026-03-28T08:50:03.509Z</time></trkpt><trkpt lat="37.0084215" lon="15.0498043"><ele>448.00000000000006</ele><time>2026-03-28T08:50:04.509Z</time></trkpt><trkpt lat="37.008494" lon="15.0498349"><ele>448.0</ele><time>2026-03-28T08:50:05.509Z</time></trkpt><trkpt lat="37.0085692" lon="15.0498494"><ele>445.59999999999997</ele><time>2026-03-28T08:50:06.51Z</time></trkpt><trkpt lat="37.0086514" lon="15.0498263"><ele>443.19999999999993</ele><time>2026-03-28T08:50:07.509Z</time></trkpt><trkpt lat="37.0087311" lon="15.049769"><ele>440.8</ele><time>2026-03-28T08:50:08.509Z</time></trkpt><trkpt lat="37.0088133" lon="15.049691"><ele>438.4</ele><time>2026-03-28T08:50:09.509Z</time></trkpt><trkpt lat="37.0089063" lon="15.0495994"><ele>436.0</ele><time>2026-03-28T08:50:10.509Z</time></trkpt><trkpt lat="37.0089972" lon="15.0495032"><ele>436.0</ele><time>2026-03-28T08:50:11.508Z</time></trkpt><trkpt lat="37.0090879" lon="15.0494092"><ele>436.0</ele><time>2026-03-28T08:50:12.508Z</time></trkpt><trkpt lat="37.0091805" lon="15.0493302"><ele>436.0</ele><time>2026-03-28T08:50:13.51Z</time></trkpt><trkpt lat="37.0092693" lon="15.0492808"><ele>436.0</ele><time>2026-03-28T08:50:14.509Z</time></trkpt><trkpt lat="37.0093742" lon="15.0492454"><ele>436.0</ele><time>2026-03-28T08:50:15.509Z</time></trkpt><trkpt lat="37.0094948" lon="15.0492115"><ele>435.0</ele><time>2026-03-28T08:50:16.509Z</time></trkpt><trkpt lat="37.0096207" lon="15.0491759"><ele>434.0</ele><time>2026-03-28T08:50:17.508Z</time></trkpt><trkpt lat="37.0097413" lon="15.0491454"><ele>433.0</ele><time>2026-03-28T08:50:18.509Z</time></trkpt><trkpt lat="37.0098452" lon="15.049112"><ele>432.0</ele><time>2026-03-28T08:50:19.51Z</time></trkpt><trkpt lat="37.009955" lon="15.0490768"><ele>431.0</ele><time>2026-03-28T08:50:20.509Z</time></trkpt><trkpt lat="37.0100575" lon="15.0490404"><ele>430.00000000000006</ele><time>2026-03-28T08:50:21.508Z</time></trkpt><trkpt lat="37.0101587" lon="15.0490214"><ele>429.00000000000006</ele><time>2026-03-28T08:50:22.509Z</time></trkpt><trkpt lat="37.0102666" lon="15.0490317"><ele>428.0</ele><time>2026-03-28T08:50:23.509Z</time></trkpt><trkpt lat="37.0103771" lon="15.0490701"><ele>427.0</ele><time>2026-03-28T08:50:24.509Z</time></trkpt><trkpt lat="37.0104942" lon="15.0491113"><ele>426.0</ele><time>2026-03-28T08:50:25.51Z</time></trkpt><trkpt lat="37.0106063" lon="15.0491563"><ele>425.00000000000006</ele><time>2026-03-28T08:50:26.51Z</time></trkpt><trkpt lat="37.0107142" lon="15.0492098"><ele>424.0</ele><time>2026-03-28T08:50:27.508Z</time></trkpt><trkpt lat="37.0108114" lon="15.0492603"><ele>423.0</ele><time>2026-03-28T08:50:28.509Z</time></trkpt><trkpt lat="37.010902" lon="15.0493018"><ele>422.0</ele><time>2026-03-28T08:50:29.51Z</time></trkpt><trkpt lat="37.0109832" lon="15.0493134"><ele>421.66666666666663</ele><time>2026-03-28T08:50:30.509Z</time></trkpt><trkpt lat="37.0110475" lon="15.0492852"><ele>421.3333333333333</ele><time>2026-03-28T08:50:31.509Z</time></trkpt><trkpt lat="37.0111002" lon="15.0492362"><ele>421.0</ele><time>2026-03-28T08:50:32.509Z</time></trkpt><trkpt lat="37.0111366" lon="15.0491558"><ele>420.66666666666663</ele><time>2026-03-28T08:50:33.509Z</time></trkpt><trkpt lat="37.0111624" lon="15.0490372"><ele>420.3333333333333</ele><time>2026-03-28T08:50:34.51Z</time></trkpt><trkpt lat="37.0111895" lon="15.0488965"><ele>420.0</ele><time>2026-03-28T08:50:35.507Z</time></trkpt><trkpt lat="37.0112214" lon="15.0487588"><ele>420.0</ele><time>2026-03-28T08:50:36.509Z</time></trkpt><trkpt lat="37.011279" lon="15.048615"><ele>420.0</ele><time>2026-03-28T08:50:37.508Z</time></trkpt><trkpt lat="37.0113373" lon="15.0484667"><ele>420.0</ele><time>2026-03-28T08:50:38.509Z</time></trkpt><trkpt lat="37.011409" lon="15.0483102"><ele>420.0</ele><time>2026-03-28T08:50:39.51Z</time></trkpt><trkpt lat="37.0114778" lon="15.0481638"><ele>420.25</ele><time>2026-03-28T08:50:40.509Z</time></trkpt><trkpt lat="37.0115551" lon="15.0480193"><ele>420.5</ele><time>2026-03-28T08:50:41.51Z</time></trkpt><trkpt lat="37.0116431" lon="15.0478829"><ele>420.75</ele><time>2026-03-28T08:50:42.509Z</time></trkpt><trkpt lat="37.0117265" lon="15.0477602"><ele>421.0</ele><time>2026-03-28T08:50:43.509Z</time></trkpt><trkpt lat="37.0118235" lon="15.0476574"><ele>421.0</ele><time>2026-03-28T08:50:44.509Z</time></trkpt><trkpt lat="37.011938" lon="15.0475622"><ele>421.0</ele><time>2026-03-28T08:50:45.509Z</time></trkpt><trkpt lat="37.0120587" lon="15.0474627"><ele>421.0</ele><time>2026-03-28T08:50:46.51Z</time></trkpt><trkpt lat="37.0121853" lon="15.0473618"><ele>421.0</ele><time>2026-03-28T08:50:47.51Z</time></trkpt><trkpt lat="37.0123132" lon="15.0472696"><ele>421.25</ele><time>2026-03-28T08:50:48.509Z</time></trkpt><trkpt lat="37.0124278" lon="15.0471889"><ele>421.5</ele><time>2026-03-28T08:50:49.509Z</time></trkpt><trkpt lat="37.012536" lon="15.0471183"><ele>421.75</ele><time>2026-03-28T08:50:50.509Z</time></trkpt><trkpt lat="37.0126388" lon="15.0470509"><ele>422.0</ele><time>2026-03-28T08:50:51.507Z</time></trkpt><trkpt lat="37.0127342" lon="15.0469715"><ele>425.5</ele><time>2026-03-28T08:50:52.509Z</time></trkpt><trkpt lat="37.0128261" lon="15.0468639"><ele>429.0</ele><time>2026-03-28T08:50:53.509Z</time></trkpt><trkpt lat="37.0129164" lon="15.046734"><ele>432.5</ele><time>2026-03-28T08:50:54.509Z</time></trkpt><trkpt lat="37.0130146" lon="15.0466031"><ele>436.0</ele><time>2026-03-28T08:50:55.51Z</time></trkpt><trkpt lat="37.0131146" lon="15.0464704"><ele>438.0</ele><time>2026-03-28T08:50:56.508Z</time></trkpt><trkpt lat="37.0131973" lon="15.0463445"><ele>440.0</ele><time>2026-03-28T08:50:57.509Z</time></trkpt><trkpt lat="37.0132994" lon="15.0462268"><ele>442.0</ele><time>2026-03-28T08:50:58.509Z</time></trkpt><trkpt lat="37.0134115" lon="15.0461213"><ele>444.0</ele><time>2026-03-28T08:50:59.508Z</time></trkpt><trkpt lat="37.0135205" lon="15.0460197"><ele>444.75</ele><time>2026-03-28T08:51:00.509Z</time></trkpt><trkpt lat="37.0136257" lon="15.0459328"><ele>445.5</ele><time>2026-03-28T08:51:01.508Z</time></trkpt><trkpt lat="37.0137361" lon="15.0458559"><ele>446.25</ele><time>2026-03-28T08:51:02.51Z</time></trkpt><trkpt lat="37.0138597" lon="15.04579"><ele>447.0</ele><time>2026-03-28T08:51:03.509Z</time></trkpt><trkpt lat="37.0139875" lon="15.0457279"><ele>449.0</ele><time>2026-03-28T08:51:04.51Z</time></trkpt><trkpt lat="37.0141092" lon="15.0456519"><ele>451.0</ele><time>2026-03-28T08:51:05.509Z</time></trkpt><trkpt lat="37.0142229" lon="15.0455689"><ele>453.0</ele><time>2026-03-28T08:51:06.508Z</time></trkpt><trkpt lat="37.0143375" lon="15.0455152"><ele>455.0</ele><time>2026-03-28T08:51:07.508Z</time></trkpt><trkpt lat="37.0144535" lon="15.0454799"><ele>455.0</ele><time>2026-03-28T08:51:08.509Z</time></trkpt><trkpt lat="37.0145728" lon="15.0454613"><ele>455.0</ele><time>2026-03-28T08:51:09.508Z</time></trkpt><trkpt lat="37.0146852" lon="15.0454614"><ele>455.0</ele><time>2026-03-28T08:51:10.508Z</time></trkpt><trkpt lat="37.0148077" lon="15.0454839"><ele>455.0</ele><time>2026-03-28T08:51:11.509Z</time></trkpt><trkpt lat="37.0149336" lon="15.0455121"><ele>455.3333333333333</ele><time>2026-03-28T08:51:12.509Z</time></trkpt><trkpt lat="37.0150865" lon="15.0455546"><ele>455.66666666666663</ele><time>2026-03-28T08:51:13.508Z</time></trkpt><trkpt lat="37.0152376" lon="15.0455933"><ele>456.0</ele><time>2026-03-28T08:51:14.509Z</time></trkpt><trkpt lat="37.0153997" lon="15.0456223"><ele>456.0</ele><time>2026-03-28T08:51:15.509Z</time></trkpt><trkpt lat="37.0155692" lon="15.0456542"><ele>456.0</ele><time>2026-03-28T08:51:16.508Z</time></trkpt><trkpt lat="37.0157369" lon="15.0456928"><ele>456.0</ele><time>2026-03-28T08:51:17.509Z</time></trkpt><trkpt lat="37.0159036" lon="15.0457204"><ele>456.66666666666663</ele><time>2026-03-28T08:51:18.508Z</time></trkpt><trkpt lat="37.0160602" lon="15.0457467"><ele>457.3333333333333</ele><time>2026-03-28T08:51:19.508Z</time></trkpt><trkpt lat="37.0162118" lon="15.0457636"><ele>458.0</ele><time>2026-03-28T08:51:20.51Z</time></trkpt><trkpt lat="37.0163607" lon="15.0457828"><ele>459.3333333333333</ele><time>2026-03-28T08:51:21.509Z</time></trkpt><trkpt lat="37.0165191" lon="15.0457975"><ele>460.66666666666663</ele><time>2026-03-28T08:51:22.51Z</time></trkpt><trkpt lat="37.0166841" lon="15.0458046"><ele>462.0</ele><time>2026-03-28T08:51:23.51Z</time></trkpt><trkpt lat="37.0168533" lon="15.0458029"><ele>462.66666666666663</ele><time>2026-03-28T08:51:24.507Z</time></trkpt><trkpt lat="37.0170283" lon="15.0458012"><ele>463.3333333333333</ele><time>2026-03-28T08:51:25.508Z</time></trkpt><trkpt lat="37.0171884" lon="15.0457991"><ele>464.0</ele><time>2026-03-28T08:51:26.508Z</time></trkpt><trkpt lat="37.0173422" lon="15.0458033"><ele>464.3333333333333</ele><time>2026-03-28T08:51:27.51Z</time></trkpt><trkpt lat="37.0175032" lon="15.0458118"><ele>464.66666666666663</ele><time>2026-03-28T08:51:28.509Z</time></trkpt><trkpt lat="37.0176601" lon="15.0458206"><ele>465.0</ele><time>2026-03-28T08:51:29.51Z</time></trkpt><trkpt lat="37.0178196" lon="15.0458265"><ele>465.0</ele><time>2026-03-28T08:51:30.508Z</time></trkpt><trkpt lat="37.0179828" lon="15.0458253"><ele>465.0</ele><time>2026-03-28T08:51:31.508Z</time></trkpt><trkpt lat="37.0181359" lon="15.0458109"><ele>465.0</ele><time>2026-03-28T08:51:32.508Z</time></trkpt><trkpt lat="37.0182799" lon="15.0457806"><ele>464.0</ele><time>2026-03-28T08:51:33.508Z</time></trkpt><trkpt lat="37.0184203" lon="15.0457469"><ele>463.0</ele><time>2026-03-28T08:51:34.509Z</time></trkpt><trkpt lat="37.0185576" lon="15.0457042"><ele>462.0</ele><time>2026-03-28T08:51:35.51Z</time></trkpt><trkpt lat="37.0186916" lon="15.0456618"><ele>461.0</ele><time>2026-03-28T08:51:36.508Z</time></trkpt><trkpt lat="37.0188212" lon="15.0456186"><ele>461.0</ele><time>2026-03-28T08:51:37.507Z</time></trkpt><trkpt lat="37.0189414" lon="15.0455655"><ele>461.0</ele><time>2026-03-28T08:51:38.509Z</time></trkpt><trkpt lat="37.0190613" lon="15.0455103"><ele>461.0</ele><time>2026-03-28T08:51:39.509Z</time></trkpt><trkpt lat="37.0191838" lon="15.0454599"><ele>461.0</ele><time>2026-03-28T08:51:40.509Z</time></trkpt><trkpt lat="37.0193286" lon="15.0454335"><ele>461.5</ele><time>2026-03-28T08:51:41.509Z</time></trkpt><trkpt lat="37.0194839" lon="15.045421"><ele>462.0</ele><time>2026-03-28T08:51:42.507Z</time></trkpt><trkpt lat="37.0196313" lon="15.0454288"><ele>462.5</ele><time>2026-03-28T08:51:43.51Z</time></trkpt><trkpt lat="37.019772" lon="15.045425"><ele>463.0</ele><time>2026-03-28T08:51:44.509Z</time></trkpt><trkpt lat="37.0199156" lon="15.045397"><ele>463.33333333333337</ele><time>2026-03-28T08:51:45.509Z</time></trkpt><trkpt lat="37.020067" lon="15.045349"><ele>463.66666666666663</ele><time>2026-03-28T08:51:46.509Z</time></trkpt><trkpt lat="37.0202271" lon="15.0452929"><ele>464.0</ele><time>2026-03-28T08:51:47.509Z</time></trkpt><trkpt lat="37.0203864" lon="15.0452256"><ele>464.0</ele><time>2026-03-28T08:51:48.509Z</time></trkpt><trkpt lat="37.0205387" lon="15.0451508"><ele>464.0</ele><time>2026-03-28T08:51:49.509Z</time></trkpt><trkpt lat="37.0206741" lon="15.0450763"><ele>464.0</ele><time>2026-03-28T08:51:50.507Z</time></trkpt><trkpt lat="37.0207876" lon="15.0450057"><ele>464.0</ele><time>2026-03-28T08:51:51.507Z</time></trkpt><trkpt lat="37.0208855" lon="15.0449171"><ele>464.0</ele><time>2026-03-28T08:51:52.509Z</time></trkpt><trkpt lat="37.0209608" lon="15.0448115"><ele>464.0</ele><time>2026-03-28T08:51:53.51Z</time></trkpt><trkpt lat="37.0210288" lon="15.0447282"><ele>464.0</ele><time>2026-03-28T08:51:54.509Z</time></trkpt><trkpt lat="37.0210912" lon="15.044673"><ele>464.0</ele><time>2026-03-28T08:51:55.508Z</time></trkpt><trkpt lat="37.0211688" lon="15.0446661"><ele>464.0</ele><time>2026-03-28T08:51:56.509Z</time></trkpt><trkpt lat="37.021268" lon="15.0447422"><ele>464.0</ele><time>2026-03-28T08:51:57.509Z</time></trkpt><trkpt lat="37.0213508" lon="15.0448162"><ele>464.0</ele><time>2026-03-28T08:51:58.509Z</time></trkpt><trkpt lat="37.0214345" lon="15.044894"><ele>464.0</ele><time>2026-03-28T08:51:59.51Z</time></trkpt><trkpt lat="37.0215381" lon="15.0449637"><ele>464.0</ele><time>2026-03-28T08:52:00.508Z</time></trkpt><trkpt lat="37.0216568" lon="15.0450217"><ele>464.25</ele><time>2026-03-28T08:52:01.509Z</time></trkpt><trkpt lat="37.0217782" lon="15.0450797"><ele>464.5</ele><time>2026-03-28T08:52:02.509Z</time></trkpt><trkpt lat="37.0218941" lon="15.0451345"><ele>464.75</ele><time>2026-03-28T08:52:03.509Z</time></trkpt><trkpt lat="37.0219903" lon="15.0452149"><ele>465.0</ele><time>2026-03-28T08:52:04.509Z</time></trkpt><trkpt lat="37.0220641" lon="15.0453533"><ele>465.0</ele><time>2026-03-28T08:52:05.509Z</time></trkpt><trkpt lat="37.0221444" lon="15.0455028"><ele>465.0</ele><time>2026-03-28T08:52:06.51Z</time></trkpt><trkpt lat="37.0222066" lon="15.0456592"><ele>465.0</ele><time>2026-03-28T08:52:07.509Z</time></trkpt><trkpt lat="37.022268" lon="15.0458336"><ele>465.0</ele><time>2026-03-28T08:52:08.51Z</time></trkpt><trkpt lat="37.0223331" lon="15.0460146"><ele>465.66666666666663</ele><time>2026-03-28T08:52:09.508Z</time></trkpt><trkpt lat="37.0224022" lon="15.046209"><ele>466.3333333333333</ele><time>2026-03-28T08:52:10.51Z</time></trkpt><trkpt lat="37.0224684" lon="15.0464014"><ele>467.0</ele><time>2026-03-28T08:52:11.508Z</time></trkpt><trkpt lat="37.022525" lon="15.046581"><ele>468.0</ele><time>2026-03-28T08:52:12.508Z</time></trkpt><trkpt lat="37.0225776" lon="15.0467659"><ele>469.0</ele><time>2026-03-28T08:52:13.508Z</time></trkpt><trkpt lat="37.0226211" lon="15.0469438"><ele>470.0</ele><time>2026-03-28T08:52:14.509Z</time></trkpt><trkpt lat="37.0226553" lon="15.0471123"><ele>471.0</ele><time>2026-03-28T08:52:15.51Z</time></trkpt><trkpt lat="37.0226974" lon="15.0472777"><ele>471.0</ele><time>2026-03-28T08:52:16.509Z</time></trkpt><trkpt lat="37.0227452" lon="15.047441"><ele>471.0</ele><time>2026-03-28T08:52:17.51Z</time></trkpt><trkpt lat="37.0228136" lon="15.0476014"><ele>471.0</ele><time>2026-03-28T08:52:18.509Z</time></trkpt><trkpt lat="37.0229103" lon="15.0477681"><ele>471.0</ele><time>2026-03-28T08:52:19.508Z</time></trkpt><trkpt lat="37.0230175" lon="15.0479422"><ele>470.66666666666663</ele><time>2026-03-28T08:52:20.508Z</time></trkpt><trkpt lat="37.0231248" lon="15.0481214"><ele>470.3333333333333</ele><time>2026-03-28T08:52:21.508Z</time></trkpt><trkpt lat="37.0232278" lon="15.0483093"><ele>470.0</ele><time>2026-03-28T08:52:22.509Z</time></trkpt><trkpt lat="37.0233144" lon="15.0485033"><ele>470.0</ele><time>2026-03-28T08:52:23.508Z</time></trkpt><trkpt lat="37.0233995" lon="15.0486887"><ele>470.0</ele><time>2026-03-28T08:52:24.508Z</time></trkpt><trkpt lat="37.0235067" lon="15.0488763"><ele>470.0</ele><time>2026-03-28T08:52:25.507Z</time></trkpt><trkpt lat="37.0236299" lon="15.0490603"><ele>469.0</ele><time>2026-03-28T08:52:26.509Z</time></trkpt><trkpt lat="37.023754" lon="15.0492425"><ele>468.0</ele><time>2026-03-28T08:52:27.508Z</time></trkpt><trkpt lat="37.023864" lon="15.0494183"><ele>467.0</ele><time>2026-03-28T08:52:28.509Z</time></trkpt><trkpt lat="37.0239681" lon="15.0495907"><ele>467.0</ele><time>2026-03-28T08:52:29.509Z</time></trkpt><trkpt lat="37.0240695" lon="15.0497526"><ele>467.0</ele><time>2026-03-28T08:52:30.51Z</time></trkpt><trkpt lat="37.0241508" lon="15.0498983"><ele>467.0</ele><time>2026-03-28T08:52:31.51Z</time></trkpt><trkpt lat="37.0242382" lon="15.0500427"><ele>468.25</ele><time>2026-03-28T08:52:32.509Z</time></trkpt><trkpt lat="37.0243336" lon="15.0501794"><ele>469.5</ele><time>2026-03-28T08:52:33.508Z</time></trkpt><trkpt lat="37.0244397" lon="15.0502965"><ele>470.75</ele><time>2026-03-28T08:52:34.508Z</time></trkpt><trkpt lat="37.0245594" lon="15.0503966"><ele>472.0</ele><time>2026-03-28T08:52:35.509Z</time></trkpt><trkpt lat="37.0246867" lon="15.0504836"><ele>472.0</ele><time>2026-03-28T08:52:36.508Z</time></trkpt><trkpt lat="37.0248303" lon="15.0505541"><ele>472.0</ele><time>2026-03-28T08:52:37.508Z</time></trkpt><trkpt lat="37.0249877" lon="15.0506199"><ele>472.0</ele><time>2026-03-28T08:52:38.509Z</time></trkpt><trkpt lat="37.025154" lon="15.0506856"><ele>471.33333333333337</ele><time>2026-03-28T08:52:39.508Z</time></trkpt><trkpt lat="37.025327" lon="15.0507487"><ele>470.66666666666663</ele><time>2026-03-28T08:52:40.509Z</time></trkpt><trkpt lat="37.0254949" lon="15.0508232"><ele>470.0</ele><time>2026-03-28T08:52:41.508Z</time></trkpt><trkpt lat="37.02566" lon="15.0509022"><ele>470.0</ele><time>2026-03-28T08:52:42.509Z</time></trkpt><trkpt lat="37.0258088" lon="15.0509863"><ele>470.0</ele><time>2026-03-28T08:52:43.51Z</time></trkpt><trkpt lat="37.0259448" lon="15.0510752"><ele>470.0</ele><time>2026-03-28T08:52:44.508Z</time></trkpt><trkpt lat="37.0260719" lon="15.0511633"><ele>470.5</ele><time>2026-03-28T08:52:45.508Z</time></trkpt><trkpt lat="37.0261844" lon="15.051249"><ele>471.0</ele><time>2026-03-28T08:52:46.508Z</time></trkpt><trkpt lat="37.0262984" lon="15.0513231"><ele>471.5</ele><time>2026-03-28T08:52:47.509Z</time></trkpt><trkpt lat="37.0264189" lon="15.0513872"><ele>472.0</ele><time>2026-03-28T08:52:48.509Z</time></trkpt><trkpt lat="37.0265388" lon="15.0514419"><ele>474.0</ele><time>2026-03-28T08:52:49.509Z</time></trkpt><trkpt lat="37.0266509" lon="15.0514793"><ele>476.00000000000006</ele><time>2026-03-28T08:52:50.509Z</time></trkpt><trkpt lat="37.0267585" lon="15.0515116"><ele>478.00000000000006</ele><time>2026-03-28T08:52:51.509Z</time></trkpt><trkpt lat="37.026863" lon="15.0515351"><ele>480.0</ele><time>2026-03-28T08:52:52.509Z</time></trkpt><trkpt lat="37.0269661" lon="15.0515496"><ele>482.0</ele><time>2026-03-28T08:52:53.509Z</time></trkpt><trkpt lat="37.0270655" lon="15.0515518"><ele>481.99999999999994</ele><time>2026-03-28T08:52:54.508Z</time></trkpt><trkpt lat="37.0271561" lon="15.0515463"><ele>482.0</ele><time>2026-03-28T08:52:55.507Z</time></trkpt><trkpt lat="37.0272386" lon="15.051544"><ele>482.0</ele><time>2026-03-28T08:52:56.509Z</time></trkpt><trkpt lat="37.0273231" lon="15.0515838"><ele>482.0</ele><time>2026-03-28T08:52:57.508Z</time></trkpt><trkpt lat="37.0273965" lon="15.0516411"><ele>481.99999999999994</ele><time>2026-03-28T08:52:58.508Z</time></trkpt><trkpt lat="37.0274578" lon="15.0517166"><ele>482.0</ele><time>2026-03-28T08:52:59.508Z</time></trkpt><trkpt lat="37.0275031" lon="15.0518048"><ele>480.99999999999994</ele><time>2026-03-28T08:53:00.509Z</time></trkpt><trkpt lat="37.0275451" lon="15.0519051"><ele>480.0</ele><time>2026-03-28T08:53:01.508Z</time></trkpt><trkpt lat="37.0275946" lon="15.051989"><ele>479.0</ele><time>2026-03-28T08:53:02.509Z</time></trkpt><trkpt lat="37.0276508" lon="15.052071"><ele>478.0</ele><time>2026-03-28T08:53:03.509Z</time></trkpt><trkpt lat="37.0277252" lon="15.0521318"><ele>476.99999999999994</ele><time>2026-03-28T08:53:04.509Z</time></trkpt><trkpt lat="37.0277929" lon="15.0521952"><ele>476.0</ele><time>2026-03-28T08:53:05.509Z</time></trkpt><trkpt lat="37.0278626" lon="15.0522439"><ele>475.99999999999994</ele><time>2026-03-28T08:53:06.509Z</time></trkpt><trkpt lat="37.0279295" lon="15.0522828"><ele>476.0</ele><time>2026-03-28T08:53:07.51Z</time></trkpt><trkpt lat="37.0280025" lon="15.052328"><ele>476.0</ele><time>2026-03-28T08:53:08.509Z</time></trkpt><trkpt lat="37.0280756" lon="15.05237"><ele>476.0</ele><time>2026-03-28T08:53:09.509Z</time></trkpt><trkpt lat="37.0281445" lon="15.0524073"><ele>475.99999999999994</ele><time>2026-03-28T08:53:10.509Z</time></trkpt><trkpt lat="37.0282059" lon="15.0524387"><ele>476.0</ele><time>2026-03-28T08:53:11.507Z</time></trkpt><trkpt lat="37.0283164" lon="15.0524551"><ele>474.4</ele><time>2026-03-28T08:53:13.509Z</time></trkpt><trkpt lat="37.0284069" lon="15.0523757"><ele>472.8</ele><time>2026-03-28T08:53:15.508Z</time></trkpt><trkpt lat="37.028438" lon="15.0522919"><ele>471.19999999999993</ele><time>2026-03-28T08:53:16.509Z</time></trkpt><trkpt lat="37.028462" lon="15.0521892"><ele>469.59999999999997</ele><time>2026-03-28T08:53:17.508Z</time></trkpt><trkpt lat="37.028477" lon="15.0520669"><ele>468.0</ele><time>2026-03-28T08:53:18.508Z</time></trkpt><trkpt lat="37.0284983" lon="15.0519427"><ele>468.0</ele><time>2026-03-28T08:53:19.508Z</time></trkpt><trkpt lat="37.0285207" lon="15.0518239"><ele>467.99999999999994</ele><time>2026-03-28T08:53:20.508Z</time></trkpt><trkpt lat="37.028547" lon="15.0517046"><ele>467.99999999999994</ele><time>2026-03-28T08:53:21.509Z</time></trkpt><trkpt lat="37.0285889" lon="15.0515936"><ele>468.0</ele><time>2026-03-28T08:53:22.509Z</time></trkpt><trkpt lat="37.0286457" lon="15.0514911"><ele>468.0</ele><time>2026-03-28T08:53:23.509Z</time></trkpt><trkpt lat="37.0287097" lon="15.0513863"><ele>469.0</ele><time>2026-03-28T08:53:24.509Z</time></trkpt><trkpt lat="37.0287861" lon="15.0512839"><ele>469.99999999999994</ele><time>2026-03-28T08:53:25.51Z</time></trkpt><trkpt lat="37.0288663" lon="15.0511881"><ele>470.99999999999994</ele><time>2026-03-28T08:53:26.508Z</time></trkpt><trkpt lat="37.0289464" lon="15.0510937"><ele>472.0</ele><time>2026-03-28T08:53:27.509Z</time></trkpt><trkpt lat="37.0290241" lon="15.0509974"><ele>473.0</ele><time>2026-03-28T08:53:28.508Z</time></trkpt><trkpt lat="37.0290994" lon="15.0509043"><ele>470.59999999999997</ele><time>2026-03-28T08:53:29.509Z</time></trkpt><trkpt lat="37.0291812" lon="15.0508154"><ele>468.19999999999993</ele><time>2026-03-28T08:53:30.508Z</time></trkpt><trkpt lat="37.0292624" lon="15.0507299"><ele>465.8</ele><time>2026-03-28T08:53:31.508Z</time></trkpt><trkpt lat="37.0293489" lon="15.0506516"><ele>463.4</ele><time>2026-03-28T08:53:32.509Z</time></trkpt><trkpt lat="37.0294368" lon="15.0505792"><ele>461.0</ele><time>2026-03-28T08:53:33.509Z</time></trkpt><trkpt lat="37.0295336" lon="15.0505299"><ele>461.0</ele><time>2026-03-28T08:53:34.508Z</time></trkpt><trkpt lat="37.0296325" lon="15.0504917"><ele>461.0</ele><time>2026-03-28T08:53:35.51Z</time></trkpt><trkpt lat="37.02973" lon="15.0504556"><ele>461.0</ele><time>2026-03-28T08:53:36.509Z</time></trkpt><trkpt lat="37.0298199" lon="15.0504263"><ele>461.0</ele><time>2026-03-28T08:53:37.508Z</time></trkpt><trkpt lat="37.0299273" lon="15.0503958"><ele>461.0</ele><time>2026-03-28T08:53:39.509Z</time></trkpt><trkpt lat="37.0299828" lon="15.0503499"><ele>461.0</ele><time>2026-03-28T08:53:41.508Z</time></trkpt><trkpt lat="37.0299748" lon="15.0502328"><ele>461.0</ele><time>2026-03-28T08:53:43.509Z</time></trkpt><trkpt lat="37.0299186" lon="15.0500881"><ele>461.0</ele><time>2026-03-28T08:53:45.509Z</time></trkpt><trkpt lat="37.0298821" lon="15.0499993"><ele>461.0</ele><time>2026-03-28T08:53:46.509Z</time></trkpt><trkpt lat="37.0298521" lon="15.0498843"><ele>461.0</ele><time>2026-03-28T08:53:47.509Z</time></trkpt><trkpt lat="37.0298305" lon="15.0497724"><ele>462.6</ele><time>2026-03-28T08:53:48.507Z</time></trkpt><trkpt lat="37.0298225" lon="15.0496453"><ele>464.20000000000005</ele><time>2026-03-28T08:53:49.509Z</time></trkpt><trkpt lat="37.0298304" lon="15.049505"><ele>465.79999999999995</ele><time>2026-03-28T08:53:50.509Z</time></trkpt><trkpt lat="37.029847" lon="15.0493723"><ele>467.4</ele><time>2026-03-28T08:53:51.508Z</time></trkpt><trkpt lat="37.029872" lon="15.049256"><ele>469.0</ele><time>2026-03-28T08:53:52.51Z</time></trkpt><trkpt lat="37.0298867" lon="15.0491563"><ele>469.0</ele><time>2026-03-28T08:53:53.508Z</time></trkpt><trkpt lat="37.0299065" lon="15.049071"><ele>477.0</ele><time>2026-03-28T08:53:54.51Z</time></trkpt></trkseg></trk></gpx>